<?xml version="1.0" encoding="UTF-8"?>
<gpx creator="Wikiloc - https://www.wikiloc.com" version="1.1" xmlns="http://www.topografix.com/GPX/1/1" xmlns:xsi="http://www.w3.org/2001/XMLSchema-instance" xsi:schemaLocation="http://www.topografix.com/GPX/1/1 http://www.topografix.com/GPX/1/1/gpx.xsd">
  <metadata>
    <name>Wikiloc - Itinerario M19 - L'Anello di Monte Malbe</name>
    <author>
      <name>owen782</name>
      <link href="https://www.wikiloc.com/wikiloc/user.do?id=5312202">
        <text>owen782 on Wikiloc</text>
      </link>
    </author>
    <link href="https://www.wikiloc.com/hiking-trails/itinerario-m19-lanello-di-monte-malbe-90516791">
      <text>Itinerario M19 - L'Anello di Monte Malbe on Wikiloc</text>
    </link>
    <time>2021-12-10T12:01:22Z</time>
  </metadata>
  <wpt lat="43.136794" lon="12.328833">
    <ele>561.1</ele>
    <time>2021-12-10T12:01:26Z</time>
    <name>Partenza/Arrivo</name>
    <cmt></cmt>
    <desc></desc>
  </wpt>
  <trk>
    <name>Itinerario M19 - L'Anello di Monte Malbe</name>
    <cmt></cmt>
    <desc></desc>
    <trkseg>
      <trkpt lat="43.136777" lon="12.328899">
        <ele>561.128</ele>
        <time>2021-12-10T12:01:28Z</time>
      </trkpt>
      <trkpt lat="43.136734" lon="12.328819">
        <ele>561.589</ele>
        <time>2021-12-10T12:02:08Z</time>
      </trkpt>
      <trkpt lat="43.136713" lon="12.328754">
        <ele>561.717</ele>
        <time>2021-12-10T12:02:48Z</time>
      </trkpt>
      <trkpt lat="43.136719" lon="12.328645">
        <ele>561.608</ele>
        <time>2021-12-10T12:03:28Z</time>
      </trkpt>
      <trkpt lat="43.136767" lon="12.328572">
        <ele>561.511</ele>
        <time>2021-12-10T12:04:08Z</time>
      </trkpt>
      <trkpt lat="43.136794" lon="12.328547">
        <ele>561.582</ele>
        <time>2021-12-10T12:04:48Z</time>
      </trkpt>
      <trkpt lat="43.136848" lon="12.328471">
        <ele>561.987</ele>
        <time>2021-12-10T12:05:28Z</time>
      </trkpt>
      <trkpt lat="43.136903" lon="12.328404">
        <ele>562.353</ele>
        <time>2021-12-10T12:06:08Z</time>
      </trkpt>
      <trkpt lat="43.136936" lon="12.328326">
        <ele>563.148</ele>
        <time>2021-12-10T12:06:48Z</time>
      </trkpt>
      <trkpt lat="43.136954" lon="12.328255">
        <ele>563.419</ele>
        <time>2021-12-10T12:07:28Z</time>
      </trkpt>
      <trkpt lat="43.136976" lon="12.328167">
        <ele>563.741</ele>
        <time>2021-12-10T12:08:08Z</time>
      </trkpt>
      <trkpt lat="43.136975" lon="12.327922">
        <ele>564.963</ele>
        <time>2021-12-10T12:08:48Z</time>
      </trkpt>
      <trkpt lat="43.136961" lon="12.327863">
        <ele>565.496</ele>
        <time>2021-12-10T12:09:28Z</time>
      </trkpt>
      <trkpt lat="43.136913" lon="12.327700">
        <ele>566.831</ele>
        <time>2021-12-10T12:10:08Z</time>
      </trkpt>
      <trkpt lat="43.136824" lon="12.327557">
        <ele>568.124</ele>
        <time>2021-12-10T12:10:48Z</time>
      </trkpt>
      <trkpt lat="43.136763" lon="12.327507">
        <ele>568.608</ele>
        <time>2021-12-10T12:11:28Z</time>
      </trkpt>
      <trkpt lat="43.136633" lon="12.327351">
        <ele>571.478</ele>
        <time>2021-12-10T12:12:08Z</time>
      </trkpt>
      <trkpt lat="43.136535" lon="12.327210">
        <ele>573.319</ele>
        <time>2021-12-10T12:12:48Z</time>
      </trkpt>
      <trkpt lat="43.136411" lon="12.327017">
        <ele>577.394</ele>
        <time>2021-12-10T12:13:28Z</time>
      </trkpt>
      <trkpt lat="43.136279" lon="12.326831">
        <ele>578.780</ele>
        <time>2021-12-10T12:14:08Z</time>
      </trkpt>
      <trkpt lat="43.136196" lon="12.326695">
        <ele>579.355</ele>
        <time>2021-12-10T12:14:48Z</time>
      </trkpt>
      <trkpt lat="43.136147" lon="12.326505">
        <ele>580.446</ele>
        <time>2021-12-10T12:15:28Z</time>
      </trkpt>
      <trkpt lat="43.136100" lon="12.326310">
        <ele>581.378</ele>
        <time>2021-12-10T12:16:08Z</time>
      </trkpt>
      <trkpt lat="43.136053" lon="12.326174">
        <ele>581.220</ele>
        <time>2021-12-10T12:16:48Z</time>
      </trkpt>
      <trkpt lat="43.135987" lon="12.325915">
        <ele>583.149</ele>
        <time>2021-12-10T12:17:28Z</time>
      </trkpt>
      <trkpt lat="43.135968" lon="12.325841">
        <ele>583.802</ele>
        <time>2021-12-10T12:18:08Z</time>
      </trkpt>
      <trkpt lat="43.135954" lon="12.325751">
        <ele>584.522</ele>
        <time>2021-12-10T12:18:48Z</time>
      </trkpt>
      <trkpt lat="43.135950" lon="12.325709">
        <ele>584.908</ele>
        <time>2021-12-10T12:19:28Z</time>
      </trkpt>
      <trkpt lat="43.135937" lon="12.325540">
        <ele>586.423</ele>
        <time>2021-12-10T12:20:08Z</time>
      </trkpt>
      <trkpt lat="43.135921" lon="12.325364">
        <ele>588.014</ele>
        <time>2021-12-10T12:20:48Z</time>
      </trkpt>
      <trkpt lat="43.135914" lon="12.325190">
        <ele>589.329</ele>
        <time>2021-12-10T12:21:28Z</time>
      </trkpt>
      <trkpt lat="43.135909" lon="12.324964">
        <ele>590.375</ele>
        <time>2021-12-10T12:22:08Z</time>
      </trkpt>
      <trkpt lat="43.135893" lon="12.324846">
        <ele>590.080</ele>
        <time>2021-12-10T12:22:48Z</time>
      </trkpt>
      <trkpt lat="43.135875" lon="12.324703">
        <ele>589.711</ele>
        <time>2021-12-10T12:23:28Z</time>
      </trkpt>
      <trkpt lat="43.135858" lon="12.324631">
        <ele>590.093</ele>
        <time>2021-12-10T12:24:08Z</time>
      </trkpt>
      <trkpt lat="43.135838" lon="12.324511">
        <ele>590.675</ele>
        <time>2021-12-10T12:24:48Z</time>
      </trkpt>
      <trkpt lat="43.135813" lon="12.324415">
        <ele>590.995</ele>
        <time>2021-12-10T12:25:28Z</time>
      </trkpt>
      <trkpt lat="43.135781" lon="12.324358">
        <ele>590.949</ele>
        <time>2021-12-10T12:26:08Z</time>
      </trkpt>
      <trkpt lat="43.135675" lon="12.324197">
        <ele>591.223</ele>
        <time>2021-12-10T12:26:48Z</time>
      </trkpt>
      <trkpt lat="43.135572" lon="12.324082">
        <ele>591.708</ele>
        <time>2021-12-10T12:27:28Z</time>
      </trkpt>
      <trkpt lat="43.135496" lon="12.323977">
        <ele>591.938</ele>
        <time>2021-12-10T12:28:08Z</time>
      </trkpt>
      <trkpt lat="43.135389" lon="12.323789">
        <ele>592.749</ele>
        <time>2021-12-10T12:28:48Z</time>
      </trkpt>
      <trkpt lat="43.135249" lon="12.323582">
        <ele>594.094</ele>
        <time>2021-12-10T12:29:28Z</time>
      </trkpt>
      <trkpt lat="43.135033" lon="12.323387">
        <ele>593.970</ele>
        <time>2021-12-10T12:30:08Z</time>
      </trkpt>
      <trkpt lat="43.134853" lon="12.323255">
        <ele>593.935</ele>
        <time>2021-12-10T12:30:48Z</time>
      </trkpt>
      <trkpt lat="43.134697" lon="12.323130">
        <ele>594.226</ele>
        <time>2021-12-10T12:31:28Z</time>
      </trkpt>
      <trkpt lat="43.134575" lon="12.322998">
        <ele>595.828</ele>
        <time>2021-12-10T12:32:08Z</time>
      </trkpt>
      <trkpt lat="43.134454" lon="12.322848">
        <ele>597.630</ele>
        <time>2021-12-10T12:32:48Z</time>
      </trkpt>
      <trkpt lat="43.134351" lon="12.322766">
        <ele>598.933</ele>
        <time>2021-12-10T12:33:28Z</time>
      </trkpt>
      <trkpt lat="43.134251" lon="12.322744">
        <ele>599.823</ele>
        <time>2021-12-10T12:34:08Z</time>
      </trkpt>
      <trkpt lat="43.134076" lon="12.322686">
        <ele>601.115</ele>
        <time>2021-12-10T12:34:48Z</time>
      </trkpt>
      <trkpt lat="43.133986" lon="12.322634">
        <ele>601.208</ele>
        <time>2021-12-10T12:35:28Z</time>
      </trkpt>
      <trkpt lat="43.133810" lon="12.322546">
        <ele>602.862</ele>
        <time>2021-12-10T12:36:08Z</time>
      </trkpt>
      <trkpt lat="43.133768" lon="12.322517">
        <ele>603.763</ele>
        <time>2021-12-10T12:36:48Z</time>
      </trkpt>
      <trkpt lat="43.133675" lon="12.322375">
        <ele>605.848</ele>
        <time>2021-12-10T12:37:28Z</time>
      </trkpt>
      <trkpt lat="43.133604" lon="12.322214">
        <ele>608.324</ele>
        <time>2021-12-10T12:38:08Z</time>
      </trkpt>
      <trkpt lat="43.133522" lon="12.322011">
        <ele>611.929</ele>
        <time>2021-12-10T12:38:48Z</time>
      </trkpt>
      <trkpt lat="43.133453" lon="12.321796">
        <ele>614.920</ele>
        <time>2021-12-10T12:39:28Z</time>
      </trkpt>
      <trkpt lat="43.133344" lon="12.321598">
        <ele>617.512</ele>
        <time>2021-12-10T12:40:08Z</time>
      </trkpt>
      <trkpt lat="43.133229" lon="12.321451">
        <ele>619.584</ele>
        <time>2021-12-10T12:40:48Z</time>
      </trkpt>
      <trkpt lat="43.133179" lon="12.321377">
        <ele>620.357</ele>
        <time>2021-12-10T12:41:28Z</time>
      </trkpt>
      <trkpt lat="43.133060" lon="12.321131">
        <ele>621.100</ele>
        <time>2021-12-10T12:42:08Z</time>
      </trkpt>
      <trkpt lat="43.132998" lon="12.320903">
        <ele>624.120</ele>
        <time>2021-12-10T12:42:48Z</time>
      </trkpt>
      <trkpt lat="43.133014" lon="12.320722">
        <ele>623.608</ele>
        <time>2021-12-10T12:43:28Z</time>
      </trkpt>
      <trkpt lat="43.133060" lon="12.320534">
        <ele>622.174</ele>
        <time>2021-12-10T12:44:08Z</time>
      </trkpt>
      <trkpt lat="43.133136" lon="12.320412">
        <ele>622.915</ele>
        <time>2021-12-10T12:44:48Z</time>
      </trkpt>
      <trkpt lat="43.133342" lon="12.320127">
        <ele>625.170</ele>
        <time>2021-12-10T12:45:28Z</time>
      </trkpt>
      <trkpt lat="43.133424" lon="12.319944">
        <ele>626.976</ele>
        <time>2021-12-10T12:46:08Z</time>
      </trkpt>
      <trkpt lat="43.133440" lon="12.319786">
        <ele>627.781</ele>
        <time>2021-12-10T12:46:48Z</time>
      </trkpt>
      <trkpt lat="43.133474" lon="12.319680">
        <ele>627.632</ele>
        <time>2021-12-10T12:47:28Z</time>
      </trkpt>
      <trkpt lat="43.133431" lon="12.319495">
        <ele>625.874</ele>
        <time>2021-12-10T12:48:08Z</time>
      </trkpt>
      <trkpt lat="43.133326" lon="12.319165">
        <ele>620.026</ele>
        <time>2021-12-10T12:48:48Z</time>
      </trkpt>
      <trkpt lat="43.133197" lon="12.318838">
        <ele>614.469</ele>
        <time>2021-12-10T12:49:28Z</time>
      </trkpt>
      <trkpt lat="43.133064" lon="12.318457">
        <ele>612.804</ele>
        <time>2021-12-10T12:50:08Z</time>
      </trkpt>
      <trkpt lat="43.132993" lon="12.318172">
        <ele>610.624</ele>
        <time>2021-12-10T12:50:48Z</time>
      </trkpt>
      <trkpt lat="43.132982" lon="12.317926">
        <ele>607.808</ele>
        <time>2021-12-10T12:51:28Z</time>
      </trkpt>
      <trkpt lat="43.133012" lon="12.317726">
        <ele>605.845</ele>
        <time>2021-12-10T12:52:08Z</time>
      </trkpt>
      <trkpt lat="43.133012" lon="12.317602">
        <ele>604.976</ele>
        <time>2021-12-10T12:52:48Z</time>
      </trkpt>
      <trkpt lat="43.132975" lon="12.317486">
        <ele>604.371</ele>
        <time>2021-12-10T12:53:28Z</time>
      </trkpt>
      <trkpt lat="43.132911" lon="12.317401">
        <ele>604.597</ele>
        <time>2021-12-10T12:54:08Z</time>
      </trkpt>
      <trkpt lat="43.132710" lon="12.317256">
        <ele>602.812</ele>
        <time>2021-12-10T12:54:48Z</time>
      </trkpt>
      <trkpt lat="43.132653" lon="12.317214">
        <ele>602.263</ele>
        <time>2021-12-10T12:55:28Z</time>
      </trkpt>
      <trkpt lat="43.132356" lon="12.316995">
        <ele>601.275</ele>
        <time>2021-12-10T12:56:08Z</time>
      </trkpt>
      <trkpt lat="43.132162" lon="12.316855">
        <ele>599.687</ele>
        <time>2021-12-10T12:56:48Z</time>
      </trkpt>
      <trkpt lat="43.131950" lon="12.316675">
        <ele>597.098</ele>
        <time>2021-12-10T12:57:28Z</time>
      </trkpt>
      <trkpt lat="43.131831" lon="12.316480">
        <ele>597.615</ele>
        <time>2021-12-10T12:58:08Z</time>
      </trkpt>
      <trkpt lat="43.131749" lon="12.316320">
        <ele>598.226</ele>
        <time>2021-12-10T12:58:48Z</time>
      </trkpt>
      <trkpt lat="43.131649" lon="12.316112">
        <ele>598.708</ele>
        <time>2021-12-10T12:59:28Z</time>
      </trkpt>
      <trkpt lat="43.131533" lon="12.315946">
        <ele>598.788</ele>
        <time>2021-12-10T13:00:08Z</time>
      </trkpt>
      <trkpt lat="43.131442" lon="12.315808">
        <ele>598.959</ele>
        <time>2021-12-10T13:00:48Z</time>
      </trkpt>
      <trkpt lat="43.131390" lon="12.315740">
        <ele>598.734</ele>
        <time>2021-12-10T13:01:28Z</time>
      </trkpt>
      <trkpt lat="43.131231" lon="12.315687">
        <ele>597.650</ele>
        <time>2021-12-10T13:02:08Z</time>
      </trkpt>
      <trkpt lat="43.131105" lon="12.315726">
        <ele>596.415</ele>
        <time>2021-12-10T13:02:48Z</time>
      </trkpt>
      <trkpt lat="43.130906" lon="12.315790">
        <ele>595.366</ele>
        <time>2021-12-10T13:03:28Z</time>
      </trkpt>
      <trkpt lat="43.130598" lon="12.315743">
        <ele>592.528</ele>
        <time>2021-12-10T13:04:08Z</time>
      </trkpt>
      <trkpt lat="43.130318" lon="12.315726">
        <ele>590.640</ele>
        <time>2021-12-10T13:04:48Z</time>
      </trkpt>
      <trkpt lat="43.130133" lon="12.315692">
        <ele>589.299</ele>
        <time>2021-12-10T13:05:28Z</time>
      </trkpt>
      <trkpt lat="43.129929" lon="12.315703">
        <ele>587.407</ele>
        <time>2021-12-10T13:06:08Z</time>
      </trkpt>
      <trkpt lat="43.129816" lon="12.315756">
        <ele>586.527</ele>
        <time>2021-12-10T13:06:48Z</time>
      </trkpt>
      <trkpt lat="43.129712" lon="12.315769">
        <ele>585.708</ele>
        <time>2021-12-10T13:07:28Z</time>
      </trkpt>
      <trkpt lat="43.129559" lon="12.315679">
        <ele>584.388</ele>
        <time>2021-12-10T13:08:08Z</time>
      </trkpt>
      <trkpt lat="43.129459" lon="12.315599">
        <ele>583.379</ele>
        <time>2021-12-10T13:08:48Z</time>
      </trkpt>
      <trkpt lat="43.129358" lon="12.315616">
        <ele>582.654</ele>
        <time>2021-12-10T13:09:28Z</time>
      </trkpt>
      <trkpt lat="43.129124" lon="12.315751">
        <ele>581.580</ele>
        <time>2021-12-10T13:10:08Z</time>
      </trkpt>
      <trkpt lat="43.129013" lon="12.315793">
        <ele>581.265</ele>
        <time>2021-12-10T13:10:48Z</time>
      </trkpt>
      <trkpt lat="43.128817" lon="12.315845">
        <ele>580.516</ele>
        <time>2021-12-10T13:11:28Z</time>
      </trkpt>
      <trkpt lat="43.128662" lon="12.315903">
        <ele>579.438</ele>
        <time>2021-12-10T13:12:08Z</time>
      </trkpt>
      <trkpt lat="43.128533" lon="12.315934">
        <ele>577.760</ele>
        <time>2021-12-10T13:12:48Z</time>
      </trkpt>
      <trkpt lat="43.128565" lon="12.315828">
        <ele>578.138</ele>
        <time>2021-12-10T13:13:28Z</time>
      </trkpt>
      <trkpt lat="43.128646" lon="12.315720">
        <ele>578.170</ele>
        <time>2021-12-10T13:14:08Z</time>
      </trkpt>
      <trkpt lat="43.128780" lon="12.315568">
        <ele>577.917</ele>
        <time>2021-12-10T13:14:48Z</time>
      </trkpt>
      <trkpt lat="43.128986" lon="12.315378">
        <ele>577.608</ele>
        <time>2021-12-10T13:15:28Z</time>
      </trkpt>
      <trkpt lat="43.129131" lon="12.315225">
        <ele>578.132</ele>
        <time>2021-12-10T13:16:08Z</time>
      </trkpt>
      <trkpt lat="43.129235" lon="12.315093">
        <ele>578.253</ele>
        <time>2021-12-10T13:16:48Z</time>
      </trkpt>
      <trkpt lat="43.129377" lon="12.314926">
        <ele>577.488</ele>
        <time>2021-12-10T13:17:28Z</time>
      </trkpt>
      <trkpt lat="43.129502" lon="12.314860">
        <ele>577.114</ele>
        <time>2021-12-10T13:18:08Z</time>
      </trkpt>
      <trkpt lat="43.129734" lon="12.314881">
        <ele>578.039</ele>
        <time>2021-12-10T13:18:48Z</time>
      </trkpt>
      <trkpt lat="43.129913" lon="12.314887">
        <ele>580.380</ele>
        <time>2021-12-10T13:19:28Z</time>
      </trkpt>
      <trkpt lat="43.130077" lon="12.314863">
        <ele>581.952</ele>
        <time>2021-12-10T13:20:08Z</time>
      </trkpt>
      <trkpt lat="43.130172" lon="12.314813">
        <ele>582.434</ele>
        <time>2021-12-10T13:20:48Z</time>
      </trkpt>
      <trkpt lat="43.130247" lon="12.314685">
        <ele>582.443</ele>
        <time>2021-12-10T13:21:28Z</time>
      </trkpt>
      <trkpt lat="43.130276" lon="12.314537">
        <ele>582.364</ele>
        <time>2021-12-10T13:22:08Z</time>
      </trkpt>
      <trkpt lat="43.130268" lon="12.314432">
        <ele>581.710</ele>
        <time>2021-12-10T13:22:48Z</time>
      </trkpt>
      <trkpt lat="43.130252" lon="12.314289">
        <ele>580.408</ele>
        <time>2021-12-10T13:23:28Z</time>
      </trkpt>
      <trkpt lat="43.130217" lon="12.314028">
        <ele>576.923</ele>
        <time>2021-12-10T13:24:08Z</time>
      </trkpt>
      <trkpt lat="43.130280" lon="12.313891">
        <ele>576.194</ele>
        <time>2021-12-10T13:24:48Z</time>
      </trkpt>
      <trkpt lat="43.130349" lon="12.313783">
        <ele>575.089</ele>
        <time>2021-12-10T13:25:28Z</time>
      </trkpt>
      <trkpt lat="43.130386" lon="12.313737">
        <ele>574.645</ele>
        <time>2021-12-10T13:26:08Z</time>
      </trkpt>
      <trkpt lat="43.130495" lon="12.313548">
        <ele>572.210</ele>
        <time>2021-12-10T13:26:48Z</time>
      </trkpt>
      <trkpt lat="43.130569" lon="12.313463">
        <ele>571.521</ele>
        <time>2021-12-10T13:27:28Z</time>
      </trkpt>
      <trkpt lat="43.130684" lon="12.313314">
        <ele>570.083</ele>
        <time>2021-12-10T13:28:08Z</time>
      </trkpt>
      <trkpt lat="43.130724" lon="12.313211">
        <ele>568.455</ele>
        <time>2021-12-10T13:28:48Z</time>
      </trkpt>
      <trkpt lat="43.130688" lon="12.313148">
        <ele>566.895</ele>
        <time>2021-12-10T13:29:28Z</time>
      </trkpt>
      <trkpt lat="43.130587" lon="12.313098">
        <ele>565.049</ele>
        <time>2021-12-10T13:30:08Z</time>
      </trkpt>
      <trkpt lat="43.130450" lon="12.313053">
        <ele>562.823</ele>
        <time>2021-12-10T13:30:48Z</time>
      </trkpt>
      <trkpt lat="43.130265" lon="12.313001">
        <ele>559.508</ele>
        <time>2021-12-10T13:31:28Z</time>
      </trkpt>
      <trkpt lat="43.130180" lon="12.312963">
        <ele>557.418</ele>
        <time>2021-12-10T13:32:08Z</time>
      </trkpt>
      <trkpt lat="43.129982" lon="12.312898">
        <ele>553.549</ele>
        <time>2021-12-10T13:32:48Z</time>
      </trkpt>
      <trkpt lat="43.129786" lon="12.312787">
        <ele>551.174</ele>
        <time>2021-12-10T13:33:28Z</time>
      </trkpt>
      <trkpt lat="43.129594" lon="12.312700">
        <ele>552.340</ele>
        <time>2021-12-10T13:34:08Z</time>
      </trkpt>
      <trkpt lat="43.129490" lon="12.312620">
        <ele>554.145</ele>
        <time>2021-12-10T13:34:48Z</time>
      </trkpt>
      <trkpt lat="43.129491" lon="12.312570">
        <ele>554.526</ele>
        <time>2021-12-10T13:35:28Z</time>
      </trkpt>
      <trkpt lat="43.129544" lon="12.312435">
        <ele>555.358</ele>
        <time>2021-12-10T13:36:08Z</time>
      </trkpt>
      <trkpt lat="43.129715" lon="12.312282">
        <ele>554.380</ele>
        <time>2021-12-10T13:36:48Z</time>
      </trkpt>
      <trkpt lat="43.129927" lon="12.312047">
        <ele>555.594</ele>
        <time>2021-12-10T13:37:28Z</time>
      </trkpt>
      <trkpt lat="43.130041" lon="12.311891">
        <ele>557.357</ele>
        <time>2021-12-10T13:38:08Z</time>
      </trkpt>
      <trkpt lat="43.130196" lon="12.311611">
        <ele>558.122</ele>
        <time>2021-12-10T13:38:48Z</time>
      </trkpt>
      <trkpt lat="43.130281" lon="12.311458">
        <ele>557.108</ele>
        <time>2021-12-10T13:39:28Z</time>
      </trkpt>
      <trkpt lat="43.130415" lon="12.311128">
        <ele>554.488</ele>
        <time>2021-12-10T13:40:08Z</time>
      </trkpt>
      <trkpt lat="43.130471" lon="12.310954">
        <ele>555.059</ele>
        <time>2021-12-10T13:40:48Z</time>
      </trkpt>
      <trkpt lat="43.130566" lon="12.310692">
        <ele>557.794</ele>
        <time>2021-12-10T13:41:28Z</time>
      </trkpt>
      <trkpt lat="43.130589" lon="12.310546">
        <ele>561.250</ele>
        <time>2021-12-10T13:42:08Z</time>
      </trkpt>
      <trkpt lat="43.130564" lon="12.310386">
        <ele>566.625</ele>
        <time>2021-12-10T13:42:48Z</time>
      </trkpt>
      <trkpt lat="43.130534" lon="12.310303">
        <ele>569.746</ele>
        <time>2021-12-10T13:43:28Z</time>
      </trkpt>
      <trkpt lat="43.130457" lon="12.310185">
        <ele>572.378</ele>
        <time>2021-12-10T13:44:08Z</time>
      </trkpt>
      <trkpt lat="43.130392" lon="12.310074">
        <ele>574.010</ele>
        <time>2021-12-10T13:44:48Z</time>
      </trkpt>
      <trkpt lat="43.130350" lon="12.309921">
        <ele>575.154</ele>
        <time>2021-12-10T13:45:28Z</time>
      </trkpt>
      <trkpt lat="43.130325" lon="12.309797">
        <ele>575.656</ele>
        <time>2021-12-10T13:46:08Z</time>
      </trkpt>
      <trkpt lat="43.130284" lon="12.309709">
        <ele>575.911</ele>
        <time>2021-12-10T13:46:48Z</time>
      </trkpt>
      <trkpt lat="43.130225" lon="12.309678">
        <ele>576.008</ele>
        <time>2021-12-10T13:47:28Z</time>
      </trkpt>
      <trkpt lat="43.130220" lon="12.309577">
        <ele>575.354</ele>
        <time>2021-12-10T13:48:08Z</time>
      </trkpt>
      <trkpt lat="43.130262" lon="12.309350">
        <ele>573.065</ele>
        <time>2021-12-10T13:48:48Z</time>
      </trkpt>
      <trkpt lat="43.130262" lon="12.309232">
        <ele>571.740</ele>
        <time>2021-12-10T13:49:28Z</time>
      </trkpt>
      <trkpt lat="43.130204" lon="12.309020">
        <ele>569.176</ele>
        <time>2021-12-10T13:50:08Z</time>
      </trkpt>
      <trkpt lat="43.130177" lon="12.308975">
        <ele>568.641</ele>
        <time>2021-12-10T13:50:48Z</time>
      </trkpt>
      <trkpt lat="43.130075" lon="12.308928">
        <ele>567.742</ele>
        <time>2021-12-10T13:51:28Z</time>
      </trkpt>
      <trkpt lat="43.129987" lon="12.308854">
        <ele>567.064</ele>
        <time>2021-12-10T13:52:08Z</time>
      </trkpt>
      <trkpt lat="43.129963" lon="12.308790">
        <ele>567.086</ele>
        <time>2021-12-10T13:52:48Z</time>
      </trkpt>
      <trkpt lat="43.129958" lon="12.308682">
        <ele>566.826</ele>
        <time>2021-12-10T13:53:28Z</time>
      </trkpt>
      <trkpt lat="43.129996" lon="12.308589">
        <ele>566.247</ele>
        <time>2021-12-10T13:54:08Z</time>
      </trkpt>
      <trkpt lat="43.130045" lon="12.308327">
        <ele>567.411</ele>
        <time>2021-12-10T13:54:48Z</time>
      </trkpt>
      <trkpt lat="43.130104" lon="12.308196">
        <ele>567.908</ele>
        <time>2021-12-10T13:55:28Z</time>
      </trkpt>
      <trkpt lat="43.130173" lon="12.307887">
        <ele>568.671</ele>
        <time>2021-12-10T13:56:08Z</time>
      </trkpt>
      <trkpt lat="43.130270" lon="12.307646">
        <ele>567.752</ele>
        <time>2021-12-10T13:56:48Z</time>
      </trkpt>
      <trkpt lat="43.130362" lon="12.307498">
        <ele>566.697</ele>
        <time>2021-12-10T13:57:28Z</time>
      </trkpt>
      <trkpt lat="43.130579" lon="12.307050">
        <ele>568.163</ele>
        <time>2021-12-10T13:58:08Z</time>
      </trkpt>
      <trkpt lat="43.130746" lon="12.306621">
        <ele>567.568</ele>
        <time>2021-12-10T13:58:48Z</time>
      </trkpt>
      <trkpt lat="43.130877" lon="12.306259">
        <ele>565.979</ele>
        <time>2021-12-10T13:59:28Z</time>
      </trkpt>
      <trkpt lat="43.131005" lon="12.305882">
        <ele>564.751</ele>
        <time>2021-12-10T14:00:08Z</time>
      </trkpt>
      <trkpt lat="43.131089" lon="12.305752">
        <ele>563.223</ele>
        <time>2021-12-10T14:00:48Z</time>
      </trkpt>
      <trkpt lat="43.131113" lon="12.305544">
        <ele>564.063</ele>
        <time>2021-12-10T14:01:28Z</time>
      </trkpt>
      <trkpt lat="43.131104" lon="12.305304">
        <ele>565.044</ele>
        <time>2021-12-10T14:02:08Z</time>
      </trkpt>
      <trkpt lat="43.131134" lon="12.304992">
        <ele>563.918</ele>
        <time>2021-12-10T14:02:48Z</time>
      </trkpt>
      <trkpt lat="43.131176" lon="12.304797">
        <ele>563.208</ele>
        <time>2021-12-10T14:03:28Z</time>
      </trkpt>
      <trkpt lat="43.131269" lon="12.304756">
        <ele>563.125</ele>
        <time>2021-12-10T14:04:08Z</time>
      </trkpt>
      <trkpt lat="43.131392" lon="12.304773">
        <ele>563.096</ele>
        <time>2021-12-10T14:04:48Z</time>
      </trkpt>
      <trkpt lat="43.131472" lon="12.304838">
        <ele>562.021</ele>
        <time>2021-12-10T14:05:28Z</time>
      </trkpt>
      <trkpt lat="43.131564" lon="12.304949">
        <ele>560.637</ele>
        <time>2021-12-10T14:06:08Z</time>
      </trkpt>
      <trkpt lat="43.131633" lon="12.304978">
        <ele>559.662</ele>
        <time>2021-12-10T14:06:48Z</time>
      </trkpt>
      <trkpt lat="43.131733" lon="12.305018">
        <ele>558.213</ele>
        <time>2021-12-10T14:07:28Z</time>
      </trkpt>
      <trkpt lat="43.131779" lon="12.305105">
        <ele>557.115</ele>
        <time>2021-12-10T14:08:08Z</time>
      </trkpt>
      <trkpt lat="43.131837" lon="12.305166">
        <ele>555.817</ele>
        <time>2021-12-10T14:08:48Z</time>
      </trkpt>
      <trkpt lat="43.131878" lon="12.305160">
        <ele>555.331</ele>
        <time>2021-12-10T14:09:28Z</time>
      </trkpt>
      <trkpt lat="43.131965" lon="12.305058">
        <ele>555.261</ele>
        <time>2021-12-10T14:10:08Z</time>
      </trkpt>
      <trkpt lat="43.132211" lon="12.304797">
        <ele>555.507</ele>
        <time>2021-12-10T14:10:48Z</time>
      </trkpt>
      <trkpt lat="43.132338" lon="12.304694">
        <ele>555.008</ele>
        <time>2021-12-10T14:11:28Z</time>
      </trkpt>
      <trkpt lat="43.132516" lon="12.304488">
        <ele>554.592</ele>
        <time>2021-12-10T14:12:08Z</time>
      </trkpt>
      <trkpt lat="43.132648" lon="12.304323">
        <ele>552.613</ele>
        <time>2021-12-10T14:12:48Z</time>
      </trkpt>
      <trkpt lat="43.132722" lon="12.304225">
        <ele>551.258</ele>
        <time>2021-12-10T14:13:28Z</time>
      </trkpt>
      <trkpt lat="43.132764" lon="12.304220">
        <ele>550.484</ele>
        <time>2021-12-10T14:14:08Z</time>
      </trkpt>
      <trkpt lat="43.132796" lon="12.304276">
        <ele>550.159</ele>
        <time>2021-12-10T14:14:48Z</time>
      </trkpt>
      <trkpt lat="43.132911" lon="12.304410">
        <ele>548.540</ele>
        <time>2021-12-10T14:15:28Z</time>
      </trkpt>
      <trkpt lat="43.133054" lon="12.304550">
        <ele>545.692</ele>
        <time>2021-12-10T14:16:08Z</time>
      </trkpt>
      <trkpt lat="43.133152" lon="12.304606">
        <ele>543.594</ele>
        <time>2021-12-10T14:16:48Z</time>
      </trkpt>
      <trkpt lat="43.133218" lon="12.304583">
        <ele>542.364</ele>
        <time>2021-12-10T14:17:28Z</time>
      </trkpt>
      <trkpt lat="43.133274" lon="12.304540">
        <ele>541.506</ele>
        <time>2021-12-10T14:18:08Z</time>
      </trkpt>
      <trkpt lat="43.133278" lon="12.304585">
        <ele>541.116</ele>
        <time>2021-12-10T14:18:48Z</time>
      </trkpt>
      <trkpt lat="43.133263" lon="12.304675">
        <ele>540.808</ele>
        <time>2021-12-10T14:19:28Z</time>
      </trkpt>
      <trkpt lat="43.133233" lon="12.304822">
        <ele>540.285</ele>
        <time>2021-12-10T14:20:08Z</time>
      </trkpt>
      <trkpt lat="43.133147" lon="12.305121">
        <ele>539.436</ele>
        <time>2021-12-10T14:20:48Z</time>
      </trkpt>
      <trkpt lat="43.133064" lon="12.305353">
        <ele>539.041</ele>
        <time>2021-12-10T14:21:28Z</time>
      </trkpt>
      <trkpt lat="43.132988" lon="12.305538">
        <ele>538.017</ele>
        <time>2021-12-10T14:22:08Z</time>
      </trkpt>
      <trkpt lat="43.132956" lon="12.305633">
        <ele>536.512</ele>
        <time>2021-12-10T14:22:48Z</time>
      </trkpt>
      <trkpt lat="43.132825" lon="12.305835">
        <ele>534.353</ele>
        <time>2021-12-10T14:23:28Z</time>
      </trkpt>
      <trkpt lat="43.132658" lon="12.306020">
        <ele>531.525</ele>
        <time>2021-12-10T14:24:08Z</time>
      </trkpt>
      <trkpt lat="43.132457" lon="12.306180">
        <ele>528.567</ele>
        <time>2021-12-10T14:24:48Z</time>
      </trkpt>
      <trkpt lat="43.132357" lon="12.306233">
        <ele>528.082</ele>
        <time>2021-12-10T14:25:28Z</time>
      </trkpt>
      <trkpt lat="43.132335" lon="12.306262">
        <ele>527.443</ele>
        <time>2021-12-10T14:26:08Z</time>
      </trkpt>
      <trkpt lat="43.132385" lon="12.306302">
        <ele>525.717</ele>
        <time>2021-12-10T14:26:48Z</time>
      </trkpt>
      <trkpt lat="43.132455" lon="12.306344">
        <ele>523.808</ele>
        <time>2021-12-10T14:27:28Z</time>
      </trkpt>
      <trkpt lat="43.132528" lon="12.306365">
        <ele>522.687</ele>
        <time>2021-12-10T14:28:08Z</time>
      </trkpt>
      <trkpt lat="43.132539" lon="12.306387">
        <ele>521.918</ele>
        <time>2021-12-10T14:28:48Z</time>
      </trkpt>
      <trkpt lat="43.132529" lon="12.306412">
        <ele>521.213</ele>
        <time>2021-12-10T14:29:28Z</time>
      </trkpt>
      <trkpt lat="43.132454" lon="12.306476">
        <ele>520.119</ele>
        <time>2021-12-10T14:30:08Z</time>
      </trkpt>
      <trkpt lat="43.132356" lon="12.306600">
        <ele>518.384</ele>
        <time>2021-12-10T14:30:48Z</time>
      </trkpt>
      <trkpt lat="43.132249" lon="12.306687">
        <ele>518.095</ele>
        <time>2021-12-10T14:31:28Z</time>
      </trkpt>
      <trkpt lat="43.132150" lon="12.306780">
        <ele>518.137</ele>
        <time>2021-12-10T14:32:08Z</time>
      </trkpt>
      <trkpt lat="43.132045" lon="12.307017">
        <ele>515.389</ele>
        <time>2021-12-10T14:32:48Z</time>
      </trkpt>
      <trkpt lat="43.132037" lon="12.307157">
        <ele>512.237</ele>
        <time>2021-12-10T14:33:28Z</time>
      </trkpt>
      <trkpt lat="43.132018" lon="12.307250">
        <ele>511.049</ele>
        <time>2021-12-10T14:34:08Z</time>
      </trkpt>
      <trkpt lat="43.132005" lon="12.307390">
        <ele>509.513</ele>
        <time>2021-12-10T14:34:48Z</time>
      </trkpt>
      <trkpt lat="43.132035" lon="12.307414">
        <ele>508.208</ele>
        <time>2021-12-10T14:35:28Z</time>
      </trkpt>
      <trkpt lat="43.132103" lon="12.307338">
        <ele>506.982</ele>
        <time>2021-12-10T14:36:08Z</time>
      </trkpt>
      <trkpt lat="43.132314" lon="12.307192">
        <ele>502.983</ele>
        <time>2021-12-10T14:36:48Z</time>
      </trkpt>
      <trkpt lat="43.132452" lon="12.307128">
        <ele>501.528</ele>
        <time>2021-12-10T14:37:28Z</time>
      </trkpt>
      <trkpt lat="43.132628" lon="12.307055">
        <ele>501.834</ele>
        <time>2021-12-10T14:38:08Z</time>
      </trkpt>
      <trkpt lat="43.132732" lon="12.307012">
        <ele>502.949</ele>
        <time>2021-12-10T14:38:48Z</time>
      </trkpt>
      <trkpt lat="43.132769" lon="12.307010">
        <ele>502.930</ele>
        <time>2021-12-10T14:39:28Z</time>
      </trkpt>
      <trkpt lat="43.132980" lon="12.306906">
        <ele>508.052</ele>
        <time>2021-12-10T14:40:08Z</time>
      </trkpt>
      <trkpt lat="43.133096" lon="12.306860">
        <ele>509.144</ele>
        <time>2021-12-10T14:40:48Z</time>
      </trkpt>
      <trkpt lat="43.133215" lon="12.306883">
        <ele>507.599</ele>
        <time>2021-12-10T14:41:28Z</time>
      </trkpt>
      <trkpt lat="43.133371" lon="12.306906">
        <ele>504.907</ele>
        <time>2021-12-10T14:42:08Z</time>
      </trkpt>
      <trkpt lat="43.133474" lon="12.306872">
        <ele>503.027</ele>
        <time>2021-12-10T14:42:48Z</time>
      </trkpt>
      <trkpt lat="43.133611" lon="12.306811">
        <ele>500.908</ele>
        <time>2021-12-10T14:43:28Z</time>
      </trkpt>
      <trkpt lat="43.133754" lon="12.306732">
        <ele>498.048</ele>
        <time>2021-12-10T14:44:08Z</time>
      </trkpt>
      <trkpt lat="43.133797" lon="12.306696">
        <ele>497.359</ele>
        <time>2021-12-10T14:44:48Z</time>
      </trkpt>
      <trkpt lat="43.133931" lon="12.306638">
        <ele>494.484</ele>
        <time>2021-12-10T14:45:28Z</time>
      </trkpt>
      <trkpt lat="43.134077" lon="12.306621">
        <ele>490.690</ele>
        <time>2021-12-10T14:46:08Z</time>
      </trkpt>
      <trkpt lat="43.134193" lon="12.306629">
        <ele>487.395</ele>
        <time>2021-12-10T14:46:48Z</time>
      </trkpt>
      <trkpt lat="43.134460" lon="12.306626">
        <ele>482.296</ele>
        <time>2021-12-10T14:47:28Z</time>
      </trkpt>
      <trkpt lat="43.134571" lon="12.306563">
        <ele>480.158</ele>
        <time>2021-12-10T14:48:08Z</time>
      </trkpt>
      <trkpt lat="43.134737" lon="12.306436">
        <ele>478.330</ele>
        <time>2021-12-10T14:48:48Z</time>
      </trkpt>
      <trkpt lat="43.134840" lon="12.306275">
        <ele>477.159</ele>
        <time>2021-12-10T14:49:28Z</time>
      </trkpt>
      <trkpt lat="43.134900" lon="12.306183">
        <ele>475.603</ele>
        <time>2021-12-10T14:50:08Z</time>
      </trkpt>
      <trkpt lat="43.135003" lon="12.305930">
        <ele>474.523</ele>
        <time>2021-12-10T14:50:48Z</time>
      </trkpt>
      <trkpt lat="43.135090" lon="12.305728">
        <ele>473.508</ele>
        <time>2021-12-10T14:51:28Z</time>
      </trkpt>
      <trkpt lat="43.135186" lon="12.305552">
        <ele>471.334</ele>
        <time>2021-12-10T14:52:08Z</time>
      </trkpt>
      <trkpt lat="43.135336" lon="12.305374">
        <ele>467.015</ele>
        <time>2021-12-10T14:52:48Z</time>
      </trkpt>
      <trkpt lat="43.135505" lon="12.305180">
        <ele>463.590</ele>
        <time>2021-12-10T14:53:28Z</time>
      </trkpt>
      <trkpt lat="43.135669" lon="12.305086">
        <ele>458.636</ele>
        <time>2021-12-10T14:54:08Z</time>
      </trkpt>
      <trkpt lat="43.135754" lon="12.304973">
        <ele>456.091</ele>
        <time>2021-12-10T14:54:48Z</time>
      </trkpt>
      <trkpt lat="43.135823" lon="12.304810">
        <ele>454.182</ele>
        <time>2021-12-10T14:55:28Z</time>
      </trkpt>
      <trkpt lat="43.135841" lon="12.304574">
        <ele>454.814</ele>
        <time>2021-12-10T14:56:08Z</time>
      </trkpt>
      <trkpt lat="43.135891" lon="12.304414">
        <ele>454.826</ele>
        <time>2021-12-10T14:56:48Z</time>
      </trkpt>
      <trkpt lat="43.135978" lon="12.304365">
        <ele>453.155</ele>
        <time>2021-12-10T14:57:28Z</time>
      </trkpt>
      <trkpt lat="43.136123" lon="12.304342">
        <ele>449.507</ele>
        <time>2021-12-10T14:58:08Z</time>
      </trkpt>
      <trkpt lat="43.136250" lon="12.304348">
        <ele>445.917</ele>
        <time>2021-12-10T14:58:48Z</time>
      </trkpt>
      <trkpt lat="43.136387" lon="12.304371">
        <ele>441.608</ele>
        <time>2021-12-10T14:59:28Z</time>
      </trkpt>
      <trkpt lat="43.136462" lon="12.304402">
        <ele>439.884</ele>
        <time>2021-12-10T15:00:08Z</time>
      </trkpt>
      <trkpt lat="43.136520" lon="12.304413">
        <ele>438.765</ele>
        <time>2021-12-10T15:00:48Z</time>
      </trkpt>
      <trkpt lat="43.136773" lon="12.304497">
        <ele>433.940</ele>
        <time>2021-12-10T15:01:28Z</time>
      </trkpt>
      <trkpt lat="43.136876" lon="12.304551">
        <ele>431.876</ele>
        <time>2021-12-10T15:02:08Z</time>
      </trkpt>
      <trkpt lat="43.137000" lon="12.304664">
        <ele>428.211</ele>
        <time>2021-12-10T15:02:48Z</time>
      </trkpt>
      <trkpt lat="43.137169" lon="12.304806">
        <ele>423.632</ele>
        <time>2021-12-10T15:03:28Z</time>
      </trkpt>
      <trkpt lat="43.137307" lon="12.304905">
        <ele>419.554</ele>
        <time>2021-12-10T15:04:08Z</time>
      </trkpt>
      <trkpt lat="43.137449" lon="12.305020">
        <ele>414.786</ele>
        <time>2021-12-10T15:04:48Z</time>
      </trkpt>
      <trkpt lat="43.137606" lon="12.305020">
        <ele>410.645</ele>
        <time>2021-12-10T15:05:28Z</time>
      </trkpt>
      <trkpt lat="43.137718" lon="12.304915">
        <ele>409.247</ele>
        <time>2021-12-10T15:06:08Z</time>
      </trkpt>
      <trkpt lat="43.137827" lon="12.304802">
        <ele>408.611</ele>
        <time>2021-12-10T15:06:48Z</time>
      </trkpt>
      <trkpt lat="43.138121" lon="12.304612">
        <ele>406.908</ele>
        <time>2021-12-10T15:07:28Z</time>
      </trkpt>
      <trkpt lat="43.138368" lon="12.304468">
        <ele>404.063</ele>
        <time>2021-12-10T15:08:08Z</time>
      </trkpt>
      <trkpt lat="43.138662" lon="12.304286">
        <ele>399.044</ele>
        <time>2021-12-10T15:08:48Z</time>
      </trkpt>
      <trkpt lat="43.138725" lon="12.304237">
        <ele>398.069</ele>
        <time>2021-12-10T15:09:28Z</time>
      </trkpt>
      <trkpt lat="43.138850" lon="12.304136">
        <ele>395.965</ele>
        <time>2021-12-10T15:10:08Z</time>
      </trkpt>
      <trkpt lat="43.138886" lon="12.304094">
        <ele>395.180</ele>
        <time>2021-12-10T15:10:48Z</time>
      </trkpt>
      <trkpt lat="43.138868" lon="12.304202">
        <ele>395.291</ele>
        <time>2021-12-10T15:11:28Z</time>
      </trkpt>
      <trkpt lat="43.138799" lon="12.304318">
        <ele>395.933</ele>
        <time>2021-12-10T15:12:08Z</time>
      </trkpt>
      <trkpt lat="43.138707" lon="12.304450">
        <ele>396.965</ele>
        <time>2021-12-10T15:12:48Z</time>
      </trkpt>
      <trkpt lat="43.138512" lon="12.304738">
        <ele>397.248</ele>
        <time>2021-12-10T15:13:28Z</time>
      </trkpt>
      <trkpt lat="43.138390" lon="12.304873">
        <ele>397.061</ele>
        <time>2021-12-10T15:14:08Z</time>
      </trkpt>
      <trkpt lat="43.138352" lon="12.304937">
        <ele>396.217</ele>
        <time>2021-12-10T15:14:48Z</time>
      </trkpt>
      <trkpt lat="43.138205" lon="12.305245">
        <ele>391.508</ele>
        <time>2021-12-10T15:15:28Z</time>
      </trkpt>
      <trkpt lat="43.138044" lon="12.305506">
        <ele>391.013</ele>
        <time>2021-12-10T15:16:08Z</time>
      </trkpt>
      <trkpt lat="43.137923" lon="12.305721">
        <ele>391.664</ele>
        <time>2021-12-10T15:16:48Z</time>
      </trkpt>
      <trkpt lat="43.137743" lon="12.305871">
        <ele>393.299</ele>
        <time>2021-12-10T15:17:28Z</time>
      </trkpt>
      <trkpt lat="43.137547" lon="12.305919">
        <ele>394.915</ele>
        <time>2021-12-10T15:18:08Z</time>
      </trkpt>
      <trkpt lat="43.137384" lon="12.305929">
        <ele>396.260</ele>
        <time>2021-12-10T15:18:48Z</time>
      </trkpt>
      <trkpt lat="43.137203" lon="12.306014">
        <ele>396.081</ele>
        <time>2021-12-10T15:19:28Z</time>
      </trkpt>
      <trkpt lat="43.137106" lon="12.306101">
        <ele>396.623</ele>
        <time>2021-12-10T15:20:08Z</time>
      </trkpt>
      <trkpt lat="43.137042" lon="12.306238">
        <ele>396.585</ele>
        <time>2021-12-10T15:20:48Z</time>
      </trkpt>
      <trkpt lat="43.136950" lon="12.306426">
        <ele>396.196</ele>
        <time>2021-12-10T15:21:28Z</time>
      </trkpt>
      <trkpt lat="43.136900" lon="12.306527">
        <ele>397.631</ele>
        <time>2021-12-10T15:22:08Z</time>
      </trkpt>
      <trkpt lat="43.136918" lon="12.306677">
        <ele>397.624</ele>
        <time>2021-12-10T15:22:48Z</time>
      </trkpt>
      <trkpt lat="43.136960" lon="12.306825">
        <ele>399.108</ele>
        <time>2021-12-10T15:23:28Z</time>
      </trkpt>
      <trkpt lat="43.137092" lon="12.306935">
        <ele>399.898</ele>
        <time>2021-12-10T15:24:08Z</time>
      </trkpt>
      <trkpt lat="43.137188" lon="12.306999">
        <ele>400.879</ele>
        <time>2021-12-10T15:24:48Z</time>
      </trkpt>
      <trkpt lat="43.137322" lon="12.307013">
        <ele>401.534</ele>
        <time>2021-12-10T15:25:28Z</time>
      </trkpt>
      <trkpt lat="43.137380" lon="12.307012">
        <ele>401.810</ele>
        <time>2021-12-10T15:26:08Z</time>
      </trkpt>
      <trkpt lat="43.137706" lon="12.307031">
        <ele>401.465</ele>
        <time>2021-12-10T15:26:48Z</time>
      </trkpt>
      <trkpt lat="43.137870" lon="12.307046">
        <ele>400.536</ele>
        <time>2021-12-10T15:27:28Z</time>
      </trkpt>
      <trkpt lat="43.138001" lon="12.307083">
        <ele>400.498</ele>
        <time>2021-12-10T15:28:08Z</time>
      </trkpt>
      <trkpt lat="43.138154" lon="12.307120">
        <ele>401.050</ele>
        <time>2021-12-10T15:28:48Z</time>
      </trkpt>
      <trkpt lat="43.138306" lon="12.307186">
        <ele>403.038</ele>
        <time>2021-12-10T15:29:28Z</time>
      </trkpt>
      <trkpt lat="43.138453" lon="12.307309">
        <ele>404.970</ele>
        <time>2021-12-10T15:30:08Z</time>
      </trkpt>
      <trkpt lat="43.138512" lon="12.307406">
        <ele>406.117</ele>
        <time>2021-12-10T15:30:48Z</time>
      </trkpt>
      <trkpt lat="43.138504" lon="12.307467">
        <ele>407.308</ele>
        <time>2021-12-10T15:31:28Z</time>
      </trkpt>
      <trkpt lat="43.138445" lon="12.307577">
        <ele>410.262</ele>
        <time>2021-12-10T15:32:08Z</time>
      </trkpt>
      <trkpt lat="43.138421" lon="12.307736">
        <ele>413.153</ele>
        <time>2021-12-10T15:32:48Z</time>
      </trkpt>
      <trkpt lat="43.138445" lon="12.307976">
        <ele>415.828</ele>
        <time>2021-12-10T15:33:28Z</time>
      </trkpt>
      <trkpt lat="43.138467" lon="12.308170">
        <ele>416.874</ele>
        <time>2021-12-10T15:34:08Z</time>
      </trkpt>
      <trkpt lat="43.138503" lon="12.308378">
        <ele>416.419</ele>
        <time>2021-12-10T15:34:48Z</time>
      </trkpt>
      <trkpt lat="43.138525" lon="12.308489">
        <ele>415.610</ele>
        <time>2021-12-10T15:35:28Z</time>
      </trkpt>
      <trkpt lat="43.138445" lon="12.308767">
        <ele>416.982</ele>
        <time>2021-12-10T15:36:08Z</time>
      </trkpt>
      <trkpt lat="43.138368" lon="12.308936">
        <ele>417.574</ele>
        <time>2021-12-10T15:36:48Z</time>
      </trkpt>
      <trkpt lat="43.138289" lon="12.309046">
        <ele>417.917</ele>
        <time>2021-12-10T15:37:28Z</time>
      </trkpt>
      <trkpt lat="43.138183" lon="12.309184">
        <ele>419.287</ele>
        <time>2021-12-10T15:38:08Z</time>
      </trkpt>
      <trkpt lat="43.138022" lon="12.309387">
        <ele>422.515</ele>
        <time>2021-12-10T15:38:48Z</time>
      </trkpt>
      <trkpt lat="43.137891" lon="12.309543">
        <ele>425.708</ele>
        <time>2021-12-10T15:39:28Z</time>
      </trkpt>
      <trkpt lat="43.137746" lon="12.309747">
        <ele>427.330</ele>
        <time>2021-12-10T15:40:08Z</time>
      </trkpt>
      <trkpt lat="43.137684" lon="12.309957">
        <ele>426.471</ele>
        <time>2021-12-10T15:40:48Z</time>
      </trkpt>
      <trkpt lat="43.137698" lon="12.310111">
        <ele>427.266</ele>
        <time>2021-12-10T15:41:28Z</time>
      </trkpt>
      <trkpt lat="43.137718" lon="12.310196">
        <ele>428.262</ele>
        <time>2021-12-10T15:42:08Z</time>
      </trkpt>
      <trkpt lat="43.137846" lon="12.310227">
        <ele>428.237</ele>
        <time>2021-12-10T15:42:48Z</time>
      </trkpt>
      <trkpt lat="43.137999" lon="12.310196">
        <ele>427.448</ele>
        <time>2021-12-10T15:43:28Z</time>
      </trkpt>
      <trkpt lat="43.138133" lon="12.310182">
        <ele>426.850</ele>
        <time>2021-12-10T15:44:08Z</time>
      </trkpt>
      <trkpt lat="43.138213" lon="12.310172">
        <ele>426.582</ele>
        <time>2021-12-10T15:44:48Z</time>
      </trkpt>
      <trkpt lat="43.138427" lon="12.310216">
        <ele>428.012</ele>
        <time>2021-12-10T15:45:28Z</time>
      </trkpt>
      <trkpt lat="43.138575" lon="12.310254">
        <ele>430.032</ele>
        <time>2021-12-10T15:46:08Z</time>
      </trkpt>
      <trkpt lat="43.138731" lon="12.310235">
        <ele>429.805</ele>
        <time>2021-12-10T15:46:48Z</time>
      </trkpt>
      <trkpt lat="43.138998" lon="12.310217">
        <ele>429.208</ele>
        <time>2021-12-10T15:47:28Z</time>
      </trkpt>
      <trkpt lat="43.139171" lon="12.310214">
        <ele>428.880</ele>
        <time>2021-12-10T15:48:08Z</time>
      </trkpt>
      <trkpt lat="43.139249" lon="12.310222">
        <ele>430.151</ele>
        <time>2021-12-10T15:48:48Z</time>
      </trkpt>
      <trkpt lat="43.139399" lon="12.310230">
        <ele>432.376</ele>
        <time>2021-12-10T15:49:28Z</time>
      </trkpt>
      <trkpt lat="43.139552" lon="12.310198">
        <ele>431.482</ele>
        <time>2021-12-10T15:50:08Z</time>
      </trkpt>
      <trkpt lat="43.139702" lon="12.310163">
        <ele>429.767</ele>
        <time>2021-12-10T15:50:48Z</time>
      </trkpt>
      <trkpt lat="43.139795" lon="12.310097">
        <ele>427.958</ele>
        <time>2021-12-10T15:51:28Z</time>
      </trkpt>
      <trkpt lat="43.139903" lon="12.310052">
        <ele>428.180</ele>
        <time>2021-12-10T15:52:08Z</time>
      </trkpt>
      <trkpt lat="43.139974" lon="12.310003">
        <ele>427.682</ele>
        <time>2021-12-10T15:52:48Z</time>
      </trkpt>
      <trkpt lat="43.140040" lon="12.309965">
        <ele>426.691</ele>
        <time>2021-12-10T15:53:28Z</time>
      </trkpt>
      <trkpt lat="43.140186" lon="12.309950">
        <ele>426.681</ele>
        <time>2021-12-10T15:54:08Z</time>
      </trkpt>
      <trkpt lat="43.140283" lon="12.309961">
        <ele>427.319</ele>
        <time>2021-12-10T15:54:48Z</time>
      </trkpt>
      <trkpt lat="43.140345" lon="12.309974">
        <ele>426.508</ele>
        <time>2021-12-10T15:55:28Z</time>
      </trkpt>
      <trkpt lat="43.140463" lon="12.310029">
        <ele>426.298</ele>
        <time>2021-12-10T15:56:08Z</time>
      </trkpt>
      <trkpt lat="43.140588" lon="12.310163">
        <ele>429.319</ele>
        <time>2021-12-10T15:56:48Z</time>
      </trkpt>
      <trkpt lat="43.140685" lon="12.310259">
        <ele>431.474</ele>
        <time>2021-12-10T15:57:28Z</time>
      </trkpt>
      <trkpt lat="43.140744" lon="12.310296">
        <ele>431.860</ele>
        <time>2021-12-10T15:58:08Z</time>
      </trkpt>
      <trkpt lat="43.140827" lon="12.310383">
        <ele>434.415</ele>
        <time>2021-12-10T15:58:48Z</time>
      </trkpt>
      <trkpt lat="43.140893" lon="12.310457">
        <ele>437.476</ele>
        <time>2021-12-10T15:59:28Z</time>
      </trkpt>
      <trkpt lat="43.141245" lon="12.310684">
        <ele>446.078</ele>
        <time>2021-12-10T16:00:08Z</time>
      </trkpt>
      <trkpt lat="43.141292" lon="12.310773">
        <ele>449.730</ele>
        <time>2021-12-10T16:00:48Z</time>
      </trkpt>
      <trkpt lat="43.141346" lon="12.310906">
        <ele>453.814</ele>
        <time>2021-12-10T16:01:28Z</time>
      </trkpt>
      <trkpt lat="43.141380" lon="12.311073">
        <ele>458.154</ele>
        <time>2021-12-10T16:02:08Z</time>
      </trkpt>
      <trkpt lat="43.141433" lon="12.311276">
        <ele>458.109</ele>
        <time>2021-12-10T16:02:48Z</time>
      </trkpt>
      <trkpt lat="43.141351" lon="12.311402">
        <ele>463.208</ele>
        <time>2021-12-10T16:03:28Z</time>
      </trkpt>
      <trkpt lat="43.141341" lon="12.311635">
        <ele>466.210</ele>
        <time>2021-12-10T16:04:08Z</time>
      </trkpt>
      <trkpt lat="43.141364" lon="12.311978">
        <ele>469.591</ele>
        <time>2021-12-10T16:04:48Z</time>
      </trkpt>
      <trkpt lat="43.141428" lon="12.312245">
        <ele>470.536</ele>
        <time>2021-12-10T16:05:28Z</time>
      </trkpt>
      <trkpt lat="43.141449" lon="12.312416">
        <ele>472.372</ele>
        <time>2021-12-10T16:06:08Z</time>
      </trkpt>
      <trkpt lat="43.141465" lon="12.312543">
        <ele>473.757</ele>
        <time>2021-12-10T16:06:48Z</time>
      </trkpt>
      <trkpt lat="43.141512" lon="12.312821">
        <ele>476.938</ele>
        <time>2021-12-10T16:07:28Z</time>
      </trkpt>
      <trkpt lat="43.141517" lon="12.313033">
        <ele>482.520</ele>
        <time>2021-12-10T16:08:08Z</time>
      </trkpt>
      <trkpt lat="43.141583" lon="12.313188">
        <ele>483.722</ele>
        <time>2021-12-10T16:08:48Z</time>
      </trkpt>
      <trkpt lat="43.141675" lon="12.313429">
        <ele>486.128</ele>
        <time>2021-12-10T16:09:28Z</time>
      </trkpt>
      <trkpt lat="43.141749" lon="12.313581">
        <ele>486.589</ele>
        <time>2021-12-10T16:10:08Z</time>
      </trkpt>
      <trkpt lat="43.141781" lon="12.313738">
        <ele>487.317</ele>
        <time>2021-12-10T16:10:48Z</time>
      </trkpt>
      <trkpt lat="43.141784" lon="12.313837">
        <ele>488.408</ele>
        <time>2021-12-10T16:11:28Z</time>
      </trkpt>
      <trkpt lat="43.141795" lon="12.313967">
        <ele>489.461</ele>
        <time>2021-12-10T16:12:08Z</time>
      </trkpt>
      <trkpt lat="43.141787" lon="12.314031">
        <ele>490.582</ele>
        <time>2021-12-10T16:12:48Z</time>
      </trkpt>
      <trkpt lat="43.141654" lon="12.314593">
        <ele>500.697</ele>
        <time>2021-12-10T16:13:28Z</time>
      </trkpt>
      <trkpt lat="43.141593" lon="12.314892">
        <ele>503.913</ele>
        <time>2021-12-10T16:14:08Z</time>
      </trkpt>
      <trkpt lat="43.141504" lon="12.315164">
        <ele>507.238</ele>
        <time>2021-12-10T16:14:48Z</time>
      </trkpt>
      <trkpt lat="43.141416" lon="12.315348">
        <ele>509.159</ele>
        <time>2021-12-10T16:15:28Z</time>
      </trkpt>
      <trkpt lat="43.141251" lon="12.315629">
        <ele>511.061</ele>
        <time>2021-12-10T16:16:08Z</time>
      </trkpt>
      <trkpt lat="43.141287" lon="12.315751">
        <ele>510.763</ele>
        <time>2021-12-10T16:16:48Z</time>
      </trkpt>
      <trkpt lat="43.141335" lon="12.315774">
        <ele>510.435</ele>
        <time>2021-12-10T16:17:28Z</time>
      </trkpt>
      <trkpt lat="43.141499" lon="12.315690">
        <ele>510.286</ele>
        <time>2021-12-10T16:18:08Z</time>
      </trkpt>
      <trkpt lat="43.141570" lon="12.315655">
        <ele>510.414</ele>
        <time>2021-12-10T16:18:48Z</time>
      </trkpt>
      <trkpt lat="43.141696" lon="12.315510">
        <ele>510.308</ele>
        <time>2021-12-10T16:19:28Z</time>
      </trkpt>
      <trkpt lat="43.141860" lon="12.315333">
        <ele>508.222</ele>
        <time>2021-12-10T16:20:08Z</time>
      </trkpt>
      <trkpt lat="43.141972" lon="12.315288">
        <ele>508.313</ele>
        <time>2021-12-10T16:20:48Z</time>
      </trkpt>
      <trkpt lat="43.142111" lon="12.315330">
        <ele>509.648</ele>
        <time>2021-12-10T16:21:28Z</time>
      </trkpt>
      <trkpt lat="43.142172" lon="12.315378">
        <ele>510.934</ele>
        <time>2021-12-10T16:22:08Z</time>
      </trkpt>
      <trkpt lat="43.142548" lon="12.315240">
        <ele>509.689</ele>
        <time>2021-12-10T16:22:48Z</time>
      </trkpt>
      <trkpt lat="43.142735" lon="12.315179">
        <ele>507.450</ele>
        <time>2021-12-10T16:23:28Z</time>
      </trkpt>
      <trkpt lat="43.142812" lon="12.315151">
        <ele>506.562</ele>
        <time>2021-12-10T16:24:08Z</time>
      </trkpt>
      <trkpt lat="43.143023" lon="12.314945">
        <ele>502.384</ele>
        <time>2021-12-10T16:24:48Z</time>
      </trkpt>
      <trkpt lat="43.143174" lon="12.314743">
        <ele>499.367</ele>
        <time>2021-12-10T16:25:28Z</time>
      </trkpt>
      <trkpt lat="43.143265" lon="12.314508">
        <ele>496.181</ele>
        <time>2021-12-10T16:26:08Z</time>
      </trkpt>
      <trkpt lat="43.143289" lon="12.314316">
        <ele>493.219</ele>
        <time>2021-12-10T16:26:48Z</time>
      </trkpt>
      <trkpt lat="43.143314" lon="12.314173">
        <ele>490.908</ele>
        <time>2021-12-10T16:27:28Z</time>
      </trkpt>
      <trkpt lat="43.143374" lon="12.313981">
        <ele>490.695</ele>
        <time>2021-12-10T16:28:08Z</time>
      </trkpt>
      <trkpt lat="43.143536" lon="12.313407">
        <ele>488.026</ele>
        <time>2021-12-10T16:28:48Z</time>
      </trkpt>
      <trkpt lat="43.143691" lon="12.313014">
        <ele>486.591</ele>
        <time>2021-12-10T16:29:28Z</time>
      </trkpt>
      <trkpt lat="43.143855" lon="12.312605">
        <ele>483.487</ele>
        <time>2021-12-10T16:30:08Z</time>
      </trkpt>
      <trkpt lat="43.143887" lon="12.312332">
        <ele>481.112</ele>
        <time>2021-12-10T16:30:48Z</time>
      </trkpt>
      <trkpt lat="43.143942" lon="12.311975">
        <ele>479.633</ele>
        <time>2021-12-10T16:31:28Z</time>
      </trkpt>
      <trkpt lat="43.144045" lon="12.311666">
        <ele>479.095</ele>
        <time>2021-12-10T16:32:08Z</time>
      </trkpt>
      <trkpt lat="43.144196" lon="12.311360">
        <ele>479.317</ele>
        <time>2021-12-10T16:32:48Z</time>
      </trkpt>
      <trkpt lat="43.144296" lon="12.311173">
        <ele>479.273</ele>
        <time>2021-12-10T16:33:28Z</time>
      </trkpt>
      <trkpt lat="43.144364" lon="12.310945">
        <ele>478.385</ele>
        <time>2021-12-10T16:34:08Z</time>
      </trkpt>
      <trkpt lat="43.144467" lon="12.310829">
        <ele>480.613</ele>
        <time>2021-12-10T16:34:48Z</time>
      </trkpt>
      <trkpt lat="43.144579" lon="12.310475">
        <ele>479.908</ele>
        <time>2021-12-10T16:35:28Z</time>
      </trkpt>
      <trkpt lat="43.144724" lon="12.310192">
        <ele>479.446</ele>
        <time>2021-12-10T16:36:08Z</time>
      </trkpt>
      <trkpt lat="43.144763" lon="12.309950">
        <ele>478.437</ele>
        <time>2021-12-10T16:36:48Z</time>
      </trkpt>
      <trkpt lat="43.144811" lon="12.309744">
        <ele>478.132</ele>
        <time>2021-12-10T16:37:28Z</time>
      </trkpt>
      <trkpt lat="43.144927" lon="12.309490">
        <ele>476.128</ele>
        <time>2021-12-10T16:38:08Z</time>
      </trkpt>
      <trkpt lat="43.145114" lon="12.309410">
        <ele>475.763</ele>
        <time>2021-12-10T16:38:48Z</time>
      </trkpt>
      <trkpt lat="43.145413" lon="12.309297">
        <ele>473.154</ele>
        <time>2021-12-10T16:39:28Z</time>
      </trkpt>
      <trkpt lat="43.145670" lon="12.309258">
        <ele>470.466</ele>
        <time>2021-12-10T16:40:08Z</time>
      </trkpt>
      <trkpt lat="43.145786" lon="12.309290">
        <ele>469.768</ele>
        <time>2021-12-10T16:40:48Z</time>
      </trkpt>
      <trkpt lat="43.146008" lon="12.309419">
        <ele>467.817</ele>
        <time>2021-12-10T16:41:28Z</time>
      </trkpt>
      <trkpt lat="43.146192" lon="12.309612">
        <ele>467.087</ele>
        <time>2021-12-10T16:42:08Z</time>
      </trkpt>
      <trkpt lat="43.146459" lon="12.309789">
        <ele>465.015</ele>
        <time>2021-12-10T16:42:48Z</time>
      </trkpt>
      <trkpt lat="43.146674" lon="12.309896">
        <ele>461.908</ele>
        <time>2021-12-10T16:43:28Z</time>
      </trkpt>
      <trkpt lat="43.146951" lon="12.310024">
        <ele>455.540</ele>
        <time>2021-12-10T16:44:08Z</time>
      </trkpt>
      <trkpt lat="43.147103" lon="12.310134">
        <ele>453.781</ele>
        <time>2021-12-10T16:44:48Z</time>
      </trkpt>
      <trkpt lat="43.147247" lon="12.310394">
        <ele>455.836</ele>
        <time>2021-12-10T16:45:28Z</time>
      </trkpt>
      <trkpt lat="43.147350" lon="12.310626">
        <ele>458.172</ele>
        <time>2021-12-10T16:46:08Z</time>
      </trkpt>
      <trkpt lat="43.147482" lon="12.310845">
        <ele>456.877</ele>
        <time>2021-12-10T16:46:48Z</time>
      </trkpt>
      <trkpt lat="43.147614" lon="12.311083">
        <ele>453.758</ele>
        <time>2021-12-10T16:47:28Z</time>
      </trkpt>
      <trkpt lat="43.147711" lon="12.311312">
        <ele>451.720</ele>
        <time>2021-12-10T16:48:08Z</time>
      </trkpt>
      <trkpt lat="43.147778" lon="12.311550">
        <ele>450.092</ele>
        <time>2021-12-10T16:48:48Z</time>
      </trkpt>
      <trkpt lat="43.147817" lon="12.311720">
        <ele>449.655</ele>
        <time>2021-12-10T16:49:28Z</time>
      </trkpt>
      <trkpt lat="43.147920" lon="12.311772">
        <ele>448.907</ele>
        <time>2021-12-10T16:50:08Z</time>
      </trkpt>
      <trkpt lat="43.148013" lon="12.311733">
        <ele>447.917</ele>
        <time>2021-12-10T16:50:48Z</time>
      </trkpt>
      <trkpt lat="43.148087" lon="12.311566">
        <ele>445.108</ele>
        <time>2021-12-10T16:51:28Z</time>
      </trkpt>
      <trkpt lat="43.148149" lon="12.311427">
        <ele>442.234</ele>
        <time>2021-12-10T16:52:08Z</time>
      </trkpt>
      <trkpt lat="43.148219" lon="12.311440">
        <ele>441.425</ele>
        <time>2021-12-10T16:52:48Z</time>
      </trkpt>
      <trkpt lat="43.148374" lon="12.311411">
        <ele>439.280</ele>
        <time>2021-12-10T16:53:28Z</time>
      </trkpt>
      <trkpt lat="43.148573" lon="12.311357">
        <ele>437.796</ele>
        <time>2021-12-10T16:54:08Z</time>
      </trkpt>
      <trkpt lat="43.148660" lon="12.311444">
        <ele>439.311</ele>
        <time>2021-12-10T16:54:48Z</time>
      </trkpt>
      <trkpt lat="43.148609" lon="12.311569">
        <ele>441.272</ele>
        <time>2021-12-10T16:55:28Z</time>
      </trkpt>
      <trkpt lat="43.148596" lon="12.311688">
        <ele>443.534</ele>
        <time>2021-12-10T16:56:08Z</time>
      </trkpt>
      <trkpt lat="43.148715" lon="12.311685">
        <ele>444.246</ele>
        <time>2021-12-10T16:56:48Z</time>
      </trkpt>
      <trkpt lat="43.148960" lon="12.311579">
        <ele>444.078</ele>
        <time>2021-12-10T16:57:28Z</time>
      </trkpt>
      <trkpt lat="43.149420" lon="12.311431">
        <ele>443.733</ele>
        <time>2021-12-10T16:58:08Z</time>
      </trkpt>
      <trkpt lat="43.149771" lon="12.311289">
        <ele>437.126</ele>
        <time>2021-12-10T16:58:48Z</time>
      </trkpt>
      <trkpt lat="43.149973" lon="12.311215">
        <ele>434.708</ele>
        <time>2021-12-10T16:59:28Z</time>
      </trkpt>
      <trkpt lat="43.150167" lon="12.311263">
        <ele>433.126</ele>
        <time>2021-12-10T17:00:08Z</time>
      </trkpt>
      <trkpt lat="43.150221" lon="12.311353">
        <ele>433.217</ele>
        <time>2021-12-10T17:00:48Z</time>
      </trkpt>
      <trkpt lat="43.150270" lon="12.311495">
        <ele>433.422</ele>
        <time>2021-12-10T17:01:28Z</time>
      </trkpt>
      <trkpt lat="43.150289" lon="12.311653">
        <ele>433.768</ele>
        <time>2021-12-10T17:02:08Z</time>
      </trkpt>
      <trkpt lat="43.150289" lon="12.311762">
        <ele>433.413</ele>
        <time>2021-12-10T17:02:48Z</time>
      </trkpt>
      <trkpt lat="43.150360" lon="12.311901">
        <ele>431.184</ele>
        <time>2021-12-10T17:03:28Z</time>
      </trkpt>
      <trkpt lat="43.150643" lon="12.312271">
        <ele>424.046</ele>
        <time>2021-12-10T17:04:08Z</time>
      </trkpt>
      <trkpt lat="43.150823" lon="12.312538">
        <ele>420.428</ele>
        <time>2021-12-10T17:04:48Z</time>
      </trkpt>
      <trkpt lat="43.151090" lon="12.312876">
        <ele>413.743</ele>
        <time>2021-12-10T17:05:28Z</time>
      </trkpt>
      <trkpt lat="43.151338" lon="12.313191">
        <ele>410.364</ele>
        <time>2021-12-10T17:06:08Z</time>
      </trkpt>
      <trkpt lat="43.151621" lon="12.313503">
        <ele>407.410</ele>
        <time>2021-12-10T17:06:48Z</time>
      </trkpt>
      <trkpt lat="43.151908" lon="12.313742">
        <ele>407.108</ele>
        <time>2021-12-10T17:07:28Z</time>
      </trkpt>
      <trkpt lat="43.152017" lon="12.313893">
        <ele>407.013</ele>
        <time>2021-12-10T17:08:08Z</time>
      </trkpt>
      <trkpt lat="43.152130" lon="12.314009">
        <ele>406.924</ele>
        <time>2021-12-10T17:08:48Z</time>
      </trkpt>
      <trkpt lat="43.152184" lon="12.314125">
        <ele>406.479</ele>
        <time>2021-12-10T17:09:28Z</time>
      </trkpt>
      <trkpt lat="43.152313" lon="12.314292">
        <ele>405.285</ele>
        <time>2021-12-10T17:10:08Z</time>
      </trkpt>
      <trkpt lat="43.152448" lon="12.314440">
        <ele>403.690</ele>
        <time>2021-12-10T17:10:48Z</time>
      </trkpt>
      <trkpt lat="43.152728" lon="12.314688">
        <ele>399.121</ele>
        <time>2021-12-10T17:11:28Z</time>
      </trkpt>
      <trkpt lat="43.153025" lon="12.315183">
        <ele>396.063</ele>
        <time>2021-12-10T17:12:08Z</time>
      </trkpt>
      <trkpt lat="43.153185" lon="12.315434">
        <ele>395.315</ele>
        <time>2021-12-10T17:12:48Z</time>
      </trkpt>
      <trkpt lat="43.153675" lon="12.315615">
        <ele>387.672</ele>
        <time>2021-12-10T17:13:28Z</time>
      </trkpt>
      <trkpt lat="43.153977" lon="12.315789">
        <ele>381.413</ele>
        <time>2021-12-10T17:14:08Z</time>
      </trkpt>
      <trkpt lat="43.154164" lon="12.315943">
        <ele>377.714</ele>
        <time>2021-12-10T17:14:48Z</time>
      </trkpt>
      <trkpt lat="43.154273" lon="12.316149">
        <ele>376.308</ele>
        <time>2021-12-10T17:15:28Z</time>
      </trkpt>
      <trkpt lat="43.154344" lon="12.316471">
        <ele>376.776</ele>
        <time>2021-12-10T17:16:08Z</time>
      </trkpt>
      <trkpt lat="43.154357" lon="12.316703">
        <ele>377.157</ele>
        <time>2021-12-10T17:16:48Z</time>
      </trkpt>
      <trkpt lat="43.154357" lon="12.316883">
        <ele>376.992</ele>
        <time>2021-12-10T17:17:28Z</time>
      </trkpt>
      <trkpt lat="43.154402" lon="12.316979">
        <ele>375.678</ele>
        <time>2021-12-10T17:18:08Z</time>
      </trkpt>
      <trkpt lat="43.154473" lon="12.317018">
        <ele>374.533</ele>
        <time>2021-12-10T17:18:48Z</time>
      </trkpt>
      <trkpt lat="43.154556" lon="12.316992">
        <ele>374.114</ele>
        <time>2021-12-10T17:19:28Z</time>
      </trkpt>
      <trkpt lat="43.154666" lon="12.316979">
        <ele>373.766</ele>
        <time>2021-12-10T17:20:08Z</time>
      </trkpt>
      <trkpt lat="43.154581" lon="12.317209">
        <ele>376.898</ele>
        <time>2021-12-10T17:20:48Z</time>
      </trkpt>
      <trkpt lat="43.154511" lon="12.317385">
        <ele>378.879</ele>
        <time>2021-12-10T17:21:28Z</time>
      </trkpt>
      <trkpt lat="43.154458" lon="12.317586">
        <ele>381.005</ele>
        <time>2021-12-10T17:22:08Z</time>
      </trkpt>
      <trkpt lat="43.154394" lon="12.318030">
        <ele>384.625</ele>
        <time>2021-12-10T17:22:48Z</time>
      </trkpt>
      <trkpt lat="43.154336" lon="12.318423">
        <ele>387.208</ele>
        <time>2021-12-10T17:23:28Z</time>
      </trkpt>
      <trkpt lat="43.154314" lon="12.318664">
        <ele>389.616</ele>
        <time>2021-12-10T17:24:08Z</time>
      </trkpt>
      <trkpt lat="43.154342" lon="12.318896">
        <ele>392.447</ele>
        <time>2021-12-10T17:24:48Z</time>
      </trkpt>
      <trkpt lat="43.154375" lon="12.319083">
        <ele>393.682</ele>
        <time>2021-12-10T17:25:28Z</time>
      </trkpt>
      <trkpt lat="43.154378" lon="12.319279">
        <ele>395.068</ele>
        <time>2021-12-10T17:26:08Z</time>
      </trkpt>
      <trkpt lat="43.154297" lon="12.319466">
        <ele>396.533</ele>
        <time>2021-12-10T17:26:48Z</time>
      </trkpt>
      <trkpt lat="43.154259" lon="12.319610">
        <ele>396.954</ele>
        <time>2021-12-10T17:27:28Z</time>
      </trkpt>
      <trkpt lat="43.154217" lon="12.319958">
        <ele>398.026</ele>
        <time>2021-12-10T17:28:08Z</time>
      </trkpt>
      <trkpt lat="43.154230" lon="12.320299">
        <ele>398.978</ele>
        <time>2021-12-10T17:28:48Z</time>
      </trkpt>
      <trkpt lat="43.154256" lon="12.320740">
        <ele>398.915</ele>
        <time>2021-12-10T17:29:28Z</time>
      </trkpt>
      <trkpt lat="43.154256" lon="12.320985">
        <ele>400.065</ele>
        <time>2021-12-10T17:30:08Z</time>
      </trkpt>
      <trkpt lat="43.154220" lon="12.321265">
        <ele>402.111</ele>
        <time>2021-12-10T17:30:48Z</time>
      </trkpt>
      <trkpt lat="43.154159" lon="12.321503">
        <ele>403.708</ele>
        <time>2021-12-10T17:31:28Z</time>
      </trkpt>
      <trkpt lat="43.154133" lon="12.321635">
        <ele>403.560</ele>
        <time>2021-12-10T17:32:08Z</time>
      </trkpt>
      <trkpt lat="43.154159" lon="12.321776">
        <ele>402.321</ele>
        <time>2021-12-10T17:32:48Z</time>
      </trkpt>
      <trkpt lat="43.154175" lon="12.321979">
        <ele>400.636</ele>
        <time>2021-12-10T17:33:28Z</time>
      </trkpt>
      <trkpt lat="43.154365" lon="12.322472">
        <ele>396.482</ele>
        <time>2021-12-10T17:34:08Z</time>
      </trkpt>
      <trkpt lat="43.154478" lon="12.322739">
        <ele>395.857</ele>
        <time>2021-12-10T17:34:48Z</time>
      </trkpt>
      <trkpt lat="43.154606" lon="12.323148">
        <ele>392.578</ele>
        <time>2021-12-10T17:35:28Z</time>
      </trkpt>
      <trkpt lat="43.154777" lon="12.323479">
        <ele>390.260</ele>
        <time>2021-12-10T17:36:08Z</time>
      </trkpt>
      <trkpt lat="43.154902" lon="12.323814">
        <ele>389.422</ele>
        <time>2021-12-10T17:36:48Z</time>
      </trkpt>
      <trkpt lat="43.155012" lon="12.324010">
        <ele>389.841</ele>
        <time>2021-12-10T17:37:28Z</time>
      </trkpt>
      <trkpt lat="43.155025" lon="12.324113">
        <ele>390.481</ele>
        <time>2021-12-10T17:38:08Z</time>
      </trkpt>
      <trkpt lat="43.154993" lon="12.324232">
        <ele>390.809</ele>
        <time>2021-12-10T17:38:48Z</time>
      </trkpt>
      <trkpt lat="43.154980" lon="12.324297">
        <ele>390.508</ele>
        <time>2021-12-10T17:39:28Z</time>
      </trkpt>
      <trkpt lat="43.154874" lon="12.324448">
        <ele>389.553</ele>
        <time>2021-12-10T17:40:08Z</time>
      </trkpt>
      <trkpt lat="43.154716" lon="12.324486">
        <ele>388.334</ele>
        <time>2021-12-10T17:40:48Z</time>
      </trkpt>
      <trkpt lat="43.154478" lon="12.324528">
        <ele>385.789</ele>
        <time>2021-12-10T17:41:28Z</time>
      </trkpt>
      <trkpt lat="43.154214" lon="12.324615">
        <ele>385.325</ele>
        <time>2021-12-10T17:42:08Z</time>
      </trkpt>
      <trkpt lat="43.154059" lon="12.324869">
        <ele>387.890</ele>
        <time>2021-12-10T17:42:48Z</time>
      </trkpt>
      <trkpt lat="43.153921" lon="12.325281">
        <ele>392.771</ele>
        <time>2021-12-10T17:43:28Z</time>
      </trkpt>
      <trkpt lat="43.153953" lon="12.325436">
        <ele>394.183</ele>
        <time>2021-12-10T17:44:08Z</time>
      </trkpt>
      <trkpt lat="43.154130" lon="12.325777">
        <ele>398.165</ele>
        <time>2021-12-10T17:44:48Z</time>
      </trkpt>
      <trkpt lat="43.154281" lon="12.326047">
        <ele>401.678</ele>
        <time>2021-12-10T17:45:28Z</time>
      </trkpt>
      <trkpt lat="43.154333" lon="12.326166">
        <ele>403.233</ele>
        <time>2021-12-10T17:46:08Z</time>
      </trkpt>
      <trkpt lat="43.154474" lon="12.326289">
        <ele>403.926</ele>
        <time>2021-12-10T17:46:48Z</time>
      </trkpt>
      <trkpt lat="43.154561" lon="12.326398">
        <ele>404.908</ele>
        <time>2021-12-10T17:47:28Z</time>
      </trkpt>
      <trkpt lat="43.154613" lon="12.326475">
        <ele>405.746</ele>
        <time>2021-12-10T17:48:08Z</time>
      </trkpt>
      <trkpt lat="43.154680" lon="12.326710">
        <ele>408.717</ele>
        <time>2021-12-10T17:48:48Z</time>
      </trkpt>
      <trkpt lat="43.154655" lon="12.326817">
        <ele>409.752</ele>
        <time>2021-12-10T17:49:28Z</time>
      </trkpt>
      <trkpt lat="43.154594" lon="12.326894">
        <ele>410.648</ele>
        <time>2021-12-10T17:50:08Z</time>
      </trkpt>
      <trkpt lat="43.154439" lon="12.326997">
        <ele>411.863</ele>
        <time>2021-12-10T17:50:48Z</time>
      </trkpt>
      <trkpt lat="43.154281" lon="12.327019">
        <ele>412.864</ele>
        <time>2021-12-10T17:51:28Z</time>
      </trkpt>
      <trkpt lat="43.154091" lon="12.326932">
        <ele>414.256</ele>
        <time>2021-12-10T17:52:08Z</time>
      </trkpt>
      <trkpt lat="43.154021" lon="12.326829">
        <ele>414.388</ele>
        <time>2021-12-10T17:52:48Z</time>
      </trkpt>
      <trkpt lat="43.153963" lon="12.326717">
        <ele>414.597</ele>
        <time>2021-12-10T17:53:28Z</time>
      </trkpt>
      <trkpt lat="43.153773" lon="12.326591">
        <ele>413.323</ele>
        <time>2021-12-10T17:54:08Z</time>
      </trkpt>
      <trkpt lat="43.153647" lon="12.326463">
        <ele>411.625</ele>
        <time>2021-12-10T17:54:48Z</time>
      </trkpt>
      <trkpt lat="43.153428" lon="12.326308">
        <ele>410.308</ele>
        <time>2021-12-10T17:55:28Z</time>
      </trkpt>
      <trkpt lat="43.153187" lon="12.326234">
        <ele>411.238</ele>
        <time>2021-12-10T17:56:08Z</time>
      </trkpt>
      <trkpt lat="43.153023" lon="12.326083">
        <ele>412.689</ele>
        <time>2021-12-10T17:56:48Z</time>
      </trkpt>
      <trkpt lat="43.152920" lon="12.325989">
        <ele>414.754</ele>
        <time>2021-12-10T17:57:28Z</time>
      </trkpt>
      <trkpt lat="43.152801" lon="12.326009">
        <ele>417.520</ele>
        <time>2021-12-10T17:58:08Z</time>
      </trkpt>
      <trkpt lat="43.152585" lon="12.326060">
        <ele>424.255</ele>
        <time>2021-12-10T17:58:48Z</time>
      </trkpt>
      <trkpt lat="43.152247" lon="12.326118">
        <ele>433.366</ele>
        <time>2021-12-10T17:59:28Z</time>
      </trkpt>
      <trkpt lat="43.152070" lon="12.326157">
        <ele>437.148</ele>
        <time>2021-12-10T18:00:08Z</time>
      </trkpt>
      <trkpt lat="43.151919" lon="12.326096">
        <ele>440.790</ele>
        <time>2021-12-10T18:00:48Z</time>
      </trkpt>
      <trkpt lat="43.151745" lon="12.325980">
        <ele>445.763</ele>
        <time>2021-12-10T18:01:28Z</time>
      </trkpt>
      <trkpt lat="43.151700" lon="12.325787">
        <ele>447.844</ele>
        <time>2021-12-10T18:02:08Z</time>
      </trkpt>
      <trkpt lat="43.151639" lon="12.325684">
        <ele>448.918</ele>
        <time>2021-12-10T18:02:48Z</time>
      </trkpt>
      <trkpt lat="43.151491" lon="12.325645">
        <ele>450.908</ele>
        <time>2021-12-10T18:03:28Z</time>
      </trkpt>
      <trkpt lat="43.151459" lon="12.325510">
        <ele>451.035</ele>
        <time>2021-12-10T18:04:08Z</time>
      </trkpt>
      <trkpt lat="43.151359" lon="12.325429">
        <ele>452.216</ele>
        <time>2021-12-10T18:04:48Z</time>
      </trkpt>
      <trkpt lat="43.151137" lon="12.325075">
        <ele>452.931</ele>
        <time>2021-12-10T18:05:28Z</time>
      </trkpt>
      <trkpt lat="43.150947" lon="12.324818">
        <ele>454.217</ele>
        <time>2021-12-10T18:06:08Z</time>
      </trkpt>
      <trkpt lat="43.150809" lon="12.324496">
        <ele>453.592</ele>
        <time>2021-12-10T18:06:48Z</time>
      </trkpt>
      <trkpt lat="43.150767" lon="12.324229">
        <ele>452.863</ele>
        <time>2021-12-10T18:07:28Z</time>
      </trkpt>
      <trkpt lat="43.150657" lon="12.323959">
        <ele>452.295</ele>
        <time>2021-12-10T18:08:08Z</time>
      </trkpt>
      <trkpt lat="43.150574" lon="12.323914">
        <ele>452.967</ele>
        <time>2021-12-10T18:08:48Z</time>
      </trkpt>
      <trkpt lat="43.150471" lon="12.323975">
        <ele>454.657</ele>
        <time>2021-12-10T18:09:28Z</time>
      </trkpt>
      <trkpt lat="43.150384" lon="12.324029">
        <ele>456.300</ele>
        <time>2021-12-10T18:10:08Z</time>
      </trkpt>
      <trkpt lat="43.150303" lon="12.324033">
        <ele>457.620</ele>
        <time>2021-12-10T18:10:48Z</time>
      </trkpt>
      <trkpt lat="43.150194" lon="12.323975">
        <ele>458.908</ele>
        <time>2021-12-10T18:11:28Z</time>
      </trkpt>
      <trkpt lat="43.150084" lon="12.323994">
        <ele>460.884</ele>
        <time>2021-12-10T18:12:08Z</time>
      </trkpt>
      <trkpt lat="43.149914" lon="12.324029">
        <ele>463.655</ele>
        <time>2021-12-10T18:12:48Z</time>
      </trkpt>
      <trkpt lat="43.149792" lon="12.323994">
        <ele>464.810</ele>
        <time>2021-12-10T18:13:28Z</time>
      </trkpt>
      <trkpt lat="43.149608" lon="12.323849">
        <ele>465.936</ele>
        <time>2021-12-10T18:14:08Z</time>
      </trkpt>
      <trkpt lat="43.149483" lon="12.323611">
        <ele>465.451</ele>
        <time>2021-12-10T18:14:48Z</time>
      </trkpt>
      <trkpt lat="43.149502" lon="12.323325">
        <ele>461.112</ele>
        <time>2021-12-10T18:15:28Z</time>
      </trkpt>
      <trkpt lat="43.149502" lon="12.323144">
        <ele>459.164</ele>
        <time>2021-12-10T18:16:08Z</time>
      </trkpt>
      <trkpt lat="43.149602" lon="12.322909">
        <ele>455.766</ele>
        <time>2021-12-10T18:16:48Z</time>
      </trkpt>
      <trkpt lat="43.149672" lon="12.322784">
        <ele>453.843</ele>
        <time>2021-12-10T18:17:28Z</time>
      </trkpt>
      <trkpt lat="43.149714" lon="12.322620">
        <ele>453.764</ele>
        <time>2021-12-10T18:18:08Z</time>
      </trkpt>
      <trkpt lat="43.149743" lon="12.322327">
        <ele>455.110</ele>
        <time>2021-12-10T18:18:48Z</time>
      </trkpt>
      <trkpt lat="43.149692" lon="12.322031">
        <ele>457.208</ele>
        <time>2021-12-10T18:19:28Z</time>
      </trkpt>
      <trkpt lat="43.149560" lon="12.321744">
        <ele>456.883</ele>
        <time>2021-12-10T18:20:08Z</time>
      </trkpt>
      <trkpt lat="43.149508" lon="12.321657">
        <ele>456.584</ele>
        <time>2021-12-10T18:20:48Z</time>
      </trkpt>
      <trkpt lat="43.149402" lon="12.321699">
        <ele>455.719</ele>
        <time>2021-12-10T18:21:28Z</time>
      </trkpt>
      <trkpt lat="43.149132" lon="12.321902">
        <ele>454.665</ele>
        <time>2021-12-10T18:22:08Z</time>
      </trkpt>
      <trkpt lat="43.148868" lon="12.322153">
        <ele>455.460</ele>
        <time>2021-12-10T18:22:48Z</time>
      </trkpt>
      <trkpt lat="43.148726" lon="12.322375">
        <ele>455.641</ele>
        <time>2021-12-10T18:23:28Z</time>
      </trkpt>
      <trkpt lat="43.148475" lon="12.322639">
        <ele>454.563</ele>
        <time>2021-12-10T18:24:08Z</time>
      </trkpt>
      <trkpt lat="43.148343" lon="12.322604">
        <ele>454.065</ele>
        <time>2021-12-10T18:24:48Z</time>
      </trkpt>
      <trkpt lat="43.148160" lon="12.322430">
        <ele>453.947</ele>
        <time>2021-12-10T18:25:28Z</time>
      </trkpt>
      <trkpt lat="43.147706" lon="12.321982">
        <ele>454.129</ele>
        <time>2021-12-10T18:26:08Z</time>
      </trkpt>
      <trkpt lat="43.147535" lon="12.321886">
        <ele>453.821</ele>
        <time>2021-12-10T18:26:48Z</time>
      </trkpt>
      <trkpt lat="43.147420" lon="12.321921">
        <ele>453.908</ele>
        <time>2021-12-10T18:27:28Z</time>
      </trkpt>
      <trkpt lat="43.147037" lon="12.322211">
        <ele>455.963</ele>
        <time>2021-12-10T18:28:08Z</time>
      </trkpt>
      <trkpt lat="43.146834" lon="12.322320">
        <ele>456.694</ele>
        <time>2021-12-10T18:28:48Z</time>
      </trkpt>
      <trkpt lat="43.146734" lon="12.322317">
        <ele>456.429</ele>
        <time>2021-12-10T18:29:28Z</time>
      </trkpt>
      <trkpt lat="43.146628" lon="12.322288">
        <ele>456.425</ele>
        <time>2021-12-10T18:30:08Z</time>
      </trkpt>
      <trkpt lat="43.146570" lon="12.322246">
        <ele>456.450</ele>
        <time>2021-12-10T18:30:48Z</time>
      </trkpt>
      <trkpt lat="43.146483" lon="12.322571">
        <ele>457.781</ele>
        <time>2021-12-10T18:31:28Z</time>
      </trkpt>
      <trkpt lat="43.146242" lon="12.323341">
        <ele>458.013</ele>
        <time>2021-12-10T18:32:08Z</time>
      </trkpt>
      <trkpt lat="43.146032" lon="12.323605">
        <ele>459.045</ele>
        <time>2021-12-10T18:32:48Z</time>
      </trkpt>
      <trkpt lat="43.145788" lon="12.323933">
        <ele>461.231</ele>
        <time>2021-12-10T18:33:28Z</time>
      </trkpt>
      <trkpt lat="43.145595" lon="12.324206">
        <ele>463.361</ele>
        <time>2021-12-10T18:34:08Z</time>
      </trkpt>
      <trkpt lat="43.145340" lon="12.324345">
        <ele>462.207</ele>
        <time>2021-12-10T18:34:48Z</time>
      </trkpt>
      <trkpt lat="43.145044" lon="12.324383">
        <ele>460.308</ele>
        <time>2021-12-10T18:35:28Z</time>
      </trkpt>
      <trkpt lat="43.144832" lon="12.324428">
        <ele>460.122</ele>
        <time>2021-12-10T18:36:08Z</time>
      </trkpt>
      <trkpt lat="43.144703" lon="12.324496">
        <ele>460.673</ele>
        <time>2021-12-10T18:36:48Z</time>
      </trkpt>
      <trkpt lat="43.144542" lon="12.324577">
        <ele>464.448</ele>
        <time>2021-12-10T18:37:28Z</time>
      </trkpt>
      <trkpt lat="43.144323" lon="12.324898">
        <ele>472.444</ele>
        <time>2021-12-10T18:38:08Z</time>
      </trkpt>
      <trkpt lat="43.144269" lon="12.324972">
        <ele>474.849</ele>
        <time>2021-12-10T18:38:48Z</time>
      </trkpt>
      <trkpt lat="43.144182" lon="12.324840">
        <ele>475.850</ele>
        <time>2021-12-10T18:39:28Z</time>
      </trkpt>
      <trkpt lat="43.144059" lon="12.324667">
        <ele>476.642</ele>
        <time>2021-12-10T18:40:08Z</time>
      </trkpt>
      <trkpt lat="43.144002" lon="12.324583">
        <ele>477.354</ele>
        <time>2021-12-10T18:40:48Z</time>
      </trkpt>
      <trkpt lat="43.143860" lon="12.324593">
        <ele>480.157</ele>
        <time>2021-12-10T18:41:28Z</time>
      </trkpt>
      <trkpt lat="43.143676" lon="12.324699">
        <ele>483.200</ele>
        <time>2021-12-10T18:42:08Z</time>
      </trkpt>
      <trkpt lat="43.143516" lon="12.324853">
        <ele>487.420</ele>
        <time>2021-12-10T18:42:48Z</time>
      </trkpt>
      <trkpt lat="43.143406" lon="12.325030">
        <ele>490.508</ele>
        <time>2021-12-10T18:43:28Z</time>
      </trkpt>
      <trkpt lat="43.143271" lon="12.325233">
        <ele>492.364</ele>
        <time>2021-12-10T18:44:08Z</time>
      </trkpt>
      <trkpt lat="43.143100" lon="12.325317">
        <ele>492.625</ele>
        <time>2021-12-10T18:44:48Z</time>
      </trkpt>
      <trkpt lat="43.142865" lon="12.325343">
        <ele>494.440</ele>
        <time>2021-12-10T18:45:28Z</time>
      </trkpt>
      <trkpt lat="43.142499" lon="12.325339">
        <ele>498.926</ele>
        <time>2021-12-10T18:46:08Z</time>
      </trkpt>
      <trkpt lat="43.142251" lon="12.325359">
        <ele>500.341</ele>
        <time>2021-12-10T18:46:48Z</time>
      </trkpt>
      <trkpt lat="43.142138" lon="12.325362">
        <ele>500.822</ele>
        <time>2021-12-10T18:47:28Z</time>
      </trkpt>
      <trkpt lat="43.141951" lon="12.325249">
        <ele>503.294</ele>
        <time>2021-12-10T18:48:08Z</time>
      </trkpt>
      <trkpt lat="43.141823" lon="12.325050">
        <ele>505.416</ele>
        <time>2021-12-10T18:48:48Z</time>
      </trkpt>
      <trkpt lat="43.141749" lon="12.324963">
        <ele>507.019</ele>
        <time>2021-12-10T18:49:28Z</time>
      </trkpt>
      <trkpt lat="43.141646" lon="12.324860">
        <ele>509.809</ele>
        <time>2021-12-10T18:50:08Z</time>
      </trkpt>
      <trkpt lat="43.141562" lon="12.324815">
        <ele>511.619</ele>
        <time>2021-12-10T18:50:48Z</time>
      </trkpt>
      <trkpt lat="43.141478" lon="12.324705">
        <ele>514.208</ele>
        <time>2021-12-10T18:51:28Z</time>
      </trkpt>
      <trkpt lat="43.141379" lon="12.324483">
        <ele>516.950</ele>
        <time>2021-12-10T18:52:08Z</time>
      </trkpt>
      <trkpt lat="43.141282" lon="12.324251">
        <ele>520.211</ele>
        <time>2021-12-10T18:52:48Z</time>
      </trkpt>
      <trkpt lat="43.141182" lon="12.324165">
        <ele>522.096</ele>
        <time>2021-12-10T18:53:28Z</time>
      </trkpt>
      <trkpt lat="43.141102" lon="12.324222">
        <ele>523.432</ele>
        <time>2021-12-10T18:54:08Z</time>
      </trkpt>
      <trkpt lat="43.141047" lon="12.324399">
        <ele>525.457</ele>
        <time>2021-12-10T18:54:48Z</time>
      </trkpt>
      <trkpt lat="43.140941" lon="12.324609">
        <ele>527.838</ele>
        <time>2021-12-10T18:55:28Z</time>
      </trkpt>
      <trkpt lat="43.140728" lon="12.324931">
        <ele>529.470</ele>
        <time>2021-12-10T18:56:08Z</time>
      </trkpt>
      <trkpt lat="43.140477" lon="12.325268">
        <ele>534.252</ele>
        <time>2021-12-10T18:56:48Z</time>
      </trkpt>
      <trkpt lat="43.140339" lon="12.325433">
        <ele>536.747</ele>
        <time>2021-12-10T18:57:28Z</time>
      </trkpt>
      <trkpt lat="43.140139" lon="12.325613">
        <ele>538.029</ele>
        <time>2021-12-10T18:58:08Z</time>
      </trkpt>
      <trkpt lat="43.139924" lon="12.325674">
        <ele>539.721</ele>
        <time>2021-12-10T18:58:48Z</time>
      </trkpt>
      <trkpt lat="43.139455" lon="12.325795">
        <ele>540.508</ele>
        <time>2021-12-10T18:59:28Z</time>
      </trkpt>
      <trkpt lat="43.139147" lon="12.325927">
        <ele>542.183</ele>
        <time>2021-12-10T19:00:08Z</time>
      </trkpt>
      <trkpt lat="43.138928" lon="12.326023">
        <ele>544.864</ele>
        <time>2021-12-10T19:00:48Z</time>
      </trkpt>
      <trkpt lat="43.138751" lon="12.326146">
        <ele>548.029</ele>
        <time>2021-12-10T19:01:28Z</time>
      </trkpt>
      <trkpt lat="43.138522" lon="12.326387">
        <ele>550.335</ele>
        <time>2021-12-10T19:02:08Z</time>
      </trkpt>
      <trkpt lat="43.138226" lon="12.326519">
        <ele>551.450</ele>
        <time>2021-12-10T19:02:48Z</time>
      </trkpt>
      <trkpt lat="43.138010" lon="12.326554">
        <ele>552.711</ele>
        <time>2021-12-10T19:03:28Z</time>
      </trkpt>
      <trkpt lat="43.137833" lon="12.326567">
        <ele>555.073</ele>
        <time>2021-12-10T19:04:08Z</time>
      </trkpt>
      <trkpt lat="43.137743" lon="12.326583">
        <ele>556.275</ele>
        <time>2021-12-10T19:04:48Z</time>
      </trkpt>
      <trkpt lat="43.137618" lon="12.326631">
        <ele>557.655</ele>
        <time>2021-12-10T19:05:28Z</time>
      </trkpt>
      <trkpt lat="43.137425" lon="12.326807">
        <ele>559.507</ele>
        <time>2021-12-10T19:06:08Z</time>
      </trkpt>
      <trkpt lat="43.137357" lon="12.326895">
        <ele>560.817</ele>
        <time>2021-12-10T19:06:48Z</time>
      </trkpt>
      <trkpt lat="43.137260" lon="12.327034">
        <ele>563.008</ele>
        <time>2021-12-10T19:07:28Z</time>
      </trkpt>
      <trkpt lat="43.137211" lon="12.327196">
        <ele>563.564</ele>
        <time>2021-12-10T19:08:08Z</time>
      </trkpt>
      <trkpt lat="43.137203" lon="12.327356">
        <ele>562.615</ele>
        <time>2021-12-10T19:08:48Z</time>
      </trkpt>
      <trkpt lat="43.137195" lon="12.327489">
        <ele>561.810</ele>
        <time>2021-12-10T19:09:28Z</time>
      </trkpt>
      <trkpt lat="43.137236" lon="12.327665">
        <ele>560.076</ele>
        <time>2021-12-10T19:10:08Z</time>
      </trkpt>
      <trkpt lat="43.137262" lon="12.327835">
        <ele>559.191</ele>
        <time>2021-12-10T19:10:48Z</time>
      </trkpt>
      <trkpt lat="43.137211" lon="12.327978">
        <ele>560.942</ele>
        <time>2021-12-10T19:11:28Z</time>
      </trkpt>
      <trkpt lat="43.137182" lon="12.328194">
        <ele>560.674</ele>
        <time>2021-12-10T19:12:08Z</time>
      </trkpt>
      <trkpt lat="43.137161" lon="12.328310">
        <ele>560.036</ele>
        <time>2021-12-10T19:12:48Z</time>
      </trkpt>
      <trkpt lat="43.137112" lon="12.328463">
        <ele>559.539</ele>
        <time>2021-12-10T19:13:28Z</time>
      </trkpt>
      <trkpt lat="43.137022" lon="12.328538">
        <ele>559.901</ele>
        <time>2021-12-10T19:14:08Z</time>
      </trkpt>
      <trkpt lat="43.136934" lon="12.328571">
        <ele>560.521</ele>
        <time>2021-12-10T19:14:48Z</time>
      </trkpt>
      <trkpt lat="43.136869" lon="12.328632">
        <ele>560.508</ele>
        <time>2021-12-10T19:15:28Z</time>
      </trkpt>
      <trkpt lat="43.136847" lon="12.328696">
        <ele>560.752</ele>
        <time>2021-12-10T19:16:08Z</time>
      </trkpt>
      <trkpt lat="43.136812" lon="12.328793">
        <ele>561.063</ele>
        <time>2021-12-10T19:16:48Z</time>
      </trkpt>
      <trkpt lat="43.136794" lon="12.328833">
        <ele>561.188</ele>
        <time>2021-12-10T19:17:28Z</time>
      </trkpt>
    </trkseg>
  </trk></gpx>